Observation data for Coyanosa on 05/26/2019      Previous  Date  Next       Current Mesonet Observations  Soil Data  Daily Summary Page  Observations in Plain Language
KCO1 260500Z 11010KT 22/18 A299 RMK A01 T02190181  RH  079%=      5-min Rain = 0
KCO1 260501Z 11008KT 22/18 A299 RMK A01 T02190181  RH  079%=      5-min Rain = 0
KCO1 260502Z 11009KT 22/18 A299 RMK A01 T02190181  RH  079%=      5-min Rain = 0
KCO1 260503Z 11008KT 22/18 A299 RMK A01 T02190182  RH  079%=      5-min Rain = 0
KCO1 260504Z 11008KT 22/18 A299 RMK A01 T02200182  RH  079%=      5-min Rain = 0
KCO1 260505Z 11009KT 22/18 A299 RMK A01 T02190181  RH  079%=      5-min Rain = 0
KCO1 260506Z 11010KT 22/18 A299 RMK A01 T02200182  RH  079%=      5-min Rain = 0
KCO1 260507Z 12009KT 22/18 A299 RMK A01 T02210182  RH  079%=      5-min Rain = 0
KCO1 260508Z 12010KT 22/18 A299 RMK A01 T02220182  RH  078%=      5-min Rain = 0
KCO1 260509Z 11009KT 22/18 A299 RMK A01 T02230182  RH  078%=      5-min Rain = 0
KCO1 260510Z 11008KT 22/18 A299 RMK A01 T02240182  RH  077%=      5-min Rain = 0
KCO1 260511Z 12010KT 23/18 A299 RMK A01 T02250183  RH  077%=      5-min Rain = 0
KCO1 260512Z 12010KT 23/18 A299 RMK A01 T02260183  RH  076%=      5-min Rain = 0
KCO1 260513Z 12010KT 23/18 A299 RMK A01 T02280182  RH  076%=      5-min Rain = 0
KCO1 260514Z 13012KT 23/18 A299 RMK A01 T02290183  RH  075%=      5-min Rain = 0
KCO1 260515Z 13011KT 23/18 A299 RMK A01 T02300183  RH  075%=      5-min Rain = 0
KCO1 260516Z 13012KT 23/18 A299 RMK A01 T02310183  RH  074%=      5-min Rain = 0
KCO1 260517Z 12012KT 23/18 A299 RMK A01 T02330183  RH  074%=      5-min Rain = 0
KCO1 260518Z 12013KT 23/18 A299 RMK A01 T02340183  RH  073%=      5-min Rain = 0
KCO1 260519Z 13013KT 24/18 A2989 RMK A01 T02350183  RH  072%=      5-min Rain = 0
KCO1 260520Z 13015G20KT 24/18 A2989 RMK A01 T02370183  RH  072%=      5-min Rain = 0
KCO1 260521Z 13015KT 24/18 A2989 RMK A01 T02390182  RH  071%=      5-min Rain = 0
KCO1 260522Z 13015KT 24/18 A2989 RMK A01 T02400182  RH  070%=      5-min Rain = 0
KCO1 260523Z 13016KT 24/18 A2989 RMK A01 T02410182  RH  070%=      5-min Rain = 0
KCO1 260524Z 13016KT 24/18 A2989 RMK A01 T02420182  RH  069%=      5-min Rain = 0
KCO1 260525Z 13015KT 24/18 A2989 RMK A01 T02420182  RH  069%=      5-min Rain = 0
KCO1 260526Z 13016KT 24/18 A2989 RMK A01 T02430182  RH  069%=      5-min Rain = 0
KCO1 260527Z 13014G19KT 24/18 A2989 RMK A01 T02440182  RH  068%=      5-min Rain = 0
KCO1 260528Z 13014KT 24/18 A2989 RMK A01 T02440182  RH  068%=      5-min Rain = 0
KCO1 260529Z 13015KT 24/18 A2989 RMK A01 T02440182  RH  068%=      5-min Rain = 0
KCO1 260530Z 13014G19KT 24/18 A2989 RMK A01 T02440182  RH  068%=      5-min Rain = 0
KCO1 260531Z 13015KT 24/18 A2989 RMK A01 T02440182  RH  068%=      5-min Rain = 0
KCO1 260532Z 13014KT 24/18 A2989 RMK A01 T02440182  RH  068%=      5-min Rain = 0
KCO1 260533Z 12015KT 24/18 A2989 RMK A01 T02440182  RH  068%=      5-min Rain = 0
KCO1 260534Z 13013KT 24/18 A2989 RMK A01 T02440181  RH  068%=      5-min Rain = 0
KCO1 260535Z 12014KT 24/18 A2989 RMK A01 T02440182  RH  068%=      5-min Rain = 0
KCO1 260536Z 12014KT 24/18 A2989 RMK A01 T02440181  RH  068%=      5-min Rain = 0
KCO1 260537Z 12015KT 24/18 A2989 RMK A01 T02440181  RH  068%=      5-min Rain = 0
KCO1 260538Z 12013KT 24/18 A2989 RMK A01 T02440181  RH  068%=      5-min Rain = 0
KCO1 260539Z 12014KT 24/18 A2989 RMK A01 T02440181  RH  068%=      5-min Rain = 0
KCO1 260540Z 12012KT 24/18 A2989 RMK A01 T02440181  RH  068%=      5-min Rain = 0
KCO1 260541Z 12013KT 24/18 A2989 RMK A01 T02440181  RH  068%=      5-min Rain = 0
KCO1 260542Z 11013KT 24/18 A2989 RMK A01 T02430181  RH  068%=      5-min Rain = 0
KCO1 260543Z 12013KT 24/18 A2989 RMK A01 T02430181  RH  068%=      5-min Rain = 0
KCO1 260544Z 11016KT 24/18 A2988 RMK A01 T02430181  RH  068%=      5-min Rain = 0
KCO1 260545Z 12014KT 24/18 A2989 RMK A01 T02440181  RH  068%=      5-min Rain = 0
KCO1 260546Z 12013KT 25/18 A2988 RMK A01 T02450181  RH  067%=      5-min Rain = 0
KCO1 260547Z 12013KT 25/18 A2988 RMK A01 T02450181  RH  067%=      5-min Rain = 0
KCO1 260548Z 11013KT 25/18 A2988 RMK A01 T02450181  RH  067%=      5-min Rain = 0
KCO1 260549Z 12014KT 25/18 A2988 RMK A01 T02450181  RH  067%=      5-min Rain = 0
KCO1 260550Z 12013KT 25/18 A2988 RMK A01 T02450181  RH  067%=      5-min Rain = 0
KCO1 260551Z 12012KT 25/18 A2988 RMK A01 T02450180  RH  067%=      5-min Rain = 0
KCO1 260552Z 11013KT 25/18 A2988 RMK A01 T02450181  RH  067%=      5-min Rain = 0
KCO1 260553Z 12014KT 25/18 A2988 RMK A01 T02450180  RH  067%=      5-min Rain = 0
KCO1 260554Z 13016KT 25/18 A2988 RMK A01 T02460180  RH  067%=      5-min Rain = 0
KCO1 260555Z 13014KT 25/18 A2988 RMK A01 T02470180  RH  066%=      5-min Rain = 0
KCO1 260556Z 12013KT 25/18 A2988 RMK A01 T02470180  RH  066%=      5-min Rain = 0
KCO1 260557Z 12013KT 25/18 A2988 RMK A01 T02480180  RH  066%=      5-min Rain = 0
KCO1 260558Z 12012KT 25/18 A2988 RMK A01 T02470180  RH  066%=      5-min Rain = 0
KCO1 260559Z 13014KT 25/18 A2988 RMK A01 T02470180  RH  066%=      5-min Rain = 0
KCO1 260600Z 13015G21KT 25/18 A2988 RMK A01 T02470179  RH  066%=      5-min Rain = 0
KCO1 260601Z 12013KT 25/18 A2988 RMK A01 T02480180  RH  066%=      5-min Rain = 0
KCO1 260602Z 13014KT 25/18 A2988 RMK A01 T02480179  RH  066%=      5-min Rain = 0
KCO1 260603Z 13014G20KT 25/18 A2988 RMK A01 T02480179  RH  066%=      5-min Rain = 0
KCO1 260604Z 13015G20KT 25/18 A2988 RMK A01 T02480179  RH  065%=      5-min Rain = 0
KCO1 260605Z 13014KT 25/18 A2988 RMK A01 T02490179  RH  065%=      5-min Rain = 0
KCO1 260606Z 13013KT 25/18 A2988 RMK A01 T02490179  RH  065%=      5-min Rain = 0
KCO1 260607Z 13013G18KT 25/18 A2987 RMK A01 T02490179  RH  065%=      5-min Rain = 0
KCO1 260608Z 13013G18KT 25/18 A2987 RMK A01 T02490179  RH  065%=      5-min Rain = 0
KCO1 260609Z 13015KT 25/18 A2987 RMK A01 T02490179  RH  065%=      5-min Rain = 0
KCO1 260610Z 13015KT 25/18 A2987 RMK A01 T02490179  RH  065%=      5-min Rain = 0
KCO1 260611Z 13019G26KT 25/18 A2987 RMK A01 T02490179  RH  065%=      5-min Rain = 0
KCO1 260612Z 14015KT 25/18 A2987 RMK A01 T02490179  RH  065%=      5-min Rain = 0
KCO1 260613Z 13014KT 25/18 A2987 RMK A01 T02500178  RH  065%=      5-min Rain = 0
KCO1 260614Z 14018G26KT 25/18 A2987 RMK A01 T02500179  RH  065%=      5-min Rain = 0
KCO1 260615Z 13018KT 25/18 A2987 RMK A01 T02500179  RH  065%=      5-min Rain = 0
KCO1 260616Z 13016G21KT 25/18 A2987 RMK A01 T02500179  RH  064%=      5-min Rain = 0
KCO1 260617Z 13016KT 25/18 A2987 RMK A01 T02510179  RH  064%=      5-min Rain = 0
KCO1 260618Z 13017G22KT 25/18 A2987 RMK A01 T02510179  RH  064%=      5-min Rain = 0
KCO1 260619Z 13015G20KT 25/18 A2987 RMK A01 T02510179  RH  064%=      5-min Rain = 0
KCO1 260620Z 13014G19KT 25/18 A2987 RMK A01 T02500179  RH  064%=      5-min Rain = 0
KCO1 260621Z 13014G19KT 25/18 A2987 RMK A01 T02500179  RH  064%=      5-min Rain = 0
KCO1 260622Z 12019G25KT 25/18 A2987 RMK A01 T02500179  RH  065%=      5-min Rain = 0
KCO1 260623Z 13016KT 25/18 A2987 RMK A01 T02500178  RH  064%=      5-min Rain = 0
KCO1 260624Z 13013G18KT 25/18 A2987 RMK A01 T02510179  RH  064%=      5-min Rain = 0
KCO1 260625Z 13012KT 25/18 A2987 RMK A01 T02500179  RH  065%=      5-min Rain = 0
KCO1 260626Z 13013KT 25/18 A2987 RMK A01 T02490179  RH  065%=      5-min Rain = 0
KCO1 260627Z 13014KT 25/18 A2987 RMK A01 T02480179  RH  065%=      5-min Rain = 0
KCO1 260628Z 12014KT 25/18 A2987 RMK A01 T02480179  RH  065%=      5-min Rain = 0
KCO1 260629Z 14014G21KT 25/18 A2987 RMK A01 T02480179  RH  065%=      5-min Rain = 0
KCO1 260630Z 13013KT 25/18 A2987 RMK A01 T02480179  RH  065%=      5-min Rain = 0
KCO1 260631Z 13012KT 25/18 A2987 RMK A01 T02480178  RH  065%=      5-min Rain = 0
KCO1 260632Z 13013KT 25/18 A2987 RMK A01 T02480179  RH  065%=      5-min Rain = 0
KCO1 260633Z 13014G19KT 25/18 A2987 RMK A01 T02480179  RH  065%=      5-min Rain = 0
KCO1 260634Z 12013KT 25/18 A2987 RMK A01 T02480179  RH  065%=      5-min Rain = 0
KCO1 260635Z 13013KT 25/18 A2987 RMK A01 T02480179  RH  065%=      5-min Rain = 0
KCO1 260636Z 12011KT 25/18 A2987 RMK A01 T02480179  RH  066%=      5-min Rain = 0
KCO1 260637Z 12013KT 25/18 A2987 RMK A01 T02470179  RH  066%=      5-min Rain = 0
KCO1 260638Z 12013KT 25/18 A2987 RMK A01 T02470179  RH  066%=      5-min Rain = 0
KCO1 260639Z 12013KT 25/18 A2987 RMK A01 T02470179  RH  066%=      5-min Rain = 0
KCO1 260640Z 13016KT 25/18 A2987 RMK A01 T02470179  RH  066%=      5-min Rain = 0
KCO1 260641Z 12011KT 25/18 A2987 RMK A01 T02470179  RH  066%=      5-min Rain = 0
KCO1 260642Z 12013KT 25/18 A2987 RMK A01 T02470179  RH  066%=      5-min Rain = 0
KCO1 260643Z 12012G17KT 25/18 A2987 RMK A01 T02470179  RH  066%=      5-min Rain = 0
KCO1 260644Z 12014KT 25/18 A2987 RMK A01 T02470179  RH  066%=      5-min Rain = 0
KCO1 260645Z 12013KT 25/18 A2987 RMK A01 T02470179  RH  066%=      5-min Rain = 0
KCO1 260646Z 12013KT 25/18 A2987 RMK A01 T02470178  RH  066%=      5-min Rain = 0
KCO1 260647Z 12010KT 25/18 A2987 RMK A01 T02470178  RH  066%=      5-min Rain = 0
KCO1 260648Z 12012KT 25/18 A2987 RMK A01 T02470179  RH  066%=      5-min Rain = 0
KCO1 260649Z 12014KT 25/18 A2987 RMK A01 T02450178  RH  066%=      5-min Rain = 0
KCO1 260650Z 12013KT 25/18 A2987 RMK A01 T02460178  RH  066%=      5-min Rain = 0
KCO1 260651Z 12011KT 25/18 A2987 RMK A01 T02460178  RH  066%=      5-min Rain = 0
KCO1 260652Z 12010KT 25/18 A2987 RMK A01 T02460178  RH  066%=      5-min Rain = 0
KCO1 260653Z 12010KT 25/18 A2987 RMK A01 T02460178  RH  066%=      5-min Rain = 0
KCO1 260654Z 11011KT 25/18 A2987 RMK A01 T02450178  RH  066%=      5-min Rain = 0
KCO1 260655Z 12011G16KT 25/18 A2987 RMK A01 T02450178  RH  066%=      5-min Rain = 0
KCO1 260656Z 11011KT 25/18 A2987 RMK A01 T02450178  RH  066%=      5-min Rain = 0
KCO1 260657Z 12012KT 25/18 A2987 RMK A01 T02450178  RH  066%=      5-min Rain = 0
KCO1 260658Z 12012KT 25/18 A2987 RMK A01 T02450178  RH  066%=      5-min Rain = 0
KCO1 260659Z 12011KT 25/18 A2987 RMK A01 T02450178  RH  066%=      5-min Rain = 0
KCO1 260700Z 12012KT 25/18 A2987 RMK A01 T02450178  RH  066%=      5-min Rain = 0
KCO1 260701Z 12011KT 25/18 A2987 RMK A01 T02450178  RH  066%=      5-min Rain = 0
KCO1 260702Z 12012KT 25/18 A2987 RMK A01 T02450178  RH  066%=      5-min Rain = 0
KCO1 260703Z 12013KT 25/18 A2987 RMK A01 T02450178  RH  066%=      5-min Rain = 0
KCO1 260704Z 12012KT 25/18 A2987 RMK A01 T02450178  RH  066%=      5-min Rain = 0
KCO1 260705Z 12013KT 25/18 A2987 RMK A01 T02450178  RH  066%=      5-min Rain = 0
KCO1 260706Z 12013G19KT 25/18 A2987 RMK A01 T02450178  RH  066%=      5-min Rain = 0
KCO1 260707Z 13010G15KT 24/18 A2987 RMK A01 T02440178  RH  067%=      5-min Rain = 0
KCO1 260708Z 12012KT 24/18 A2987 RMK A01 T02440178  RH  067%=      5-min Rain = 0
KCO1 260709Z 12011KT 24/18 A2987 RMK A01 T02440179  RH  067%=      5-min Rain = 0
KCO1 260710Z 13012G17KT 24/18 A2987 RMK A01 T02440178  RH  067%=      5-min Rain = 0
KCO1 260711Z 13015KT 24/18 A2987 RMK A01 T02430178  RH  067%=      5-min Rain = 0
KCO1 260712Z 13013KT 24/18 A2987 RMK A01 T02440178  RH  067%=      5-min Rain = 0
KCO1 260713Z 13014KT 24/18 A2987 RMK A01 T02440178  RH  067%=      5-min Rain = 0
KCO1 260714Z 13013KT 24/18 A2987 RMK A01 T02440178  RH  066%=      5-min Rain = 0
KCO1 260715Z 13013KT 24/18 A2987 RMK A01 T02440178  RH  067%=      5-min Rain = 0
KCO1 260716Z 13015KT 24/18 A2987 RMK A01 T02440178  RH  067%=      5-min Rain = 0
KCO1 260717Z 13015G21KT 24/18 A2987 RMK A01 T02440178  RH  067%=      5-min Rain = 0
KCO1 260718Z 13015KT 25/18 A2987 RMK A01 T02450178  RH  066%=      5-min Rain = 0
KCO1 260719Z 13015KT 25/18 A2987 RMK A01 T02450178  RH  066%=      5-min Rain = 0
KCO1 260720Z 13015KT 24/18 A2987 RMK A01 T02440178  RH  066%=      5-min Rain = 0
KCO1 260721Z 13011KT 24/18 A2987 RMK A01 T02440178  RH  067%=      5-min Rain = 0
KCO1 260722Z 14013KT 24/18 A2987 RMK A01 T02430178  RH  067%=      5-min Rain = 0
KCO1 260723Z 13013KT 24/18 A2987 RMK A01 T02430178  RH  067%=      5-min Rain = 0
KCO1 260724Z 13013KT 24/18 A2987 RMK A01 T02430178  RH  067%=      5-min Rain = 0
KCO1 260725Z 13014KT 24/18 A2987 RMK A01 T02420179  RH  068%=      5-min Rain = 0
KCO1 260726Z 13013KT 24/18 A2987 RMK A01 T02420178  RH  068%=      5-min Rain = 0
KCO1 260727Z 13014KT 24/18 A2987 RMK A01 T02420179  RH  068%=      5-min Rain = 0
KCO1 260728Z 13015KT 24/18 A2987 RMK A01 T02410178  RH  068%=      5-min Rain = 0
KCO1 260729Z 13015KT 24/18 A2987 RMK A01 T02410179  RH  068%=      5-min Rain = 0
KCO1 260730Z 14017KT 24/18 A2987 RMK A01 T02410179  RH  068%=      5-min Rain = 0
KCO1 260731Z 14015KT 24/18 A2987 RMK A01 T02410179  RH  068%=      5-min Rain = 0
KCO1 260732Z 13013G18KT 24/18 A2987 RMK A01 T02410179  RH  068%=      5-min Rain = 0
KCO1 260733Z 14014KT 24/18 A2987 RMK A01 T02410178  RH  068%=      5-min Rain = 0
KCO1 260734Z 14014G19KT 24/18 A2987 RMK A01 T02410178  RH  068%=      5-min Rain = 0
KCO1 260735Z 14014KT 24/18 A2987 RMK A01 T02400178  RH  068%=      5-min Rain = 0
KCO1 260736Z 14014KT 24/18 A2987 RMK A01 T02400179  RH  068%=      5-min Rain = 0
KCO1 260737Z 14017KT 24/18 A2987 RMK A01 T02400178  RH  068%=      5-min Rain = 0
KCO1 260738Z 14014KT 24/18 A2987 RMK A01 T02400178  RH  068%=      5-min Rain = 0
KCO1 260739Z 14014KT 24/18 A2987 RMK A01 T02410178  RH  068%=      5-min Rain = 0
KCO1 260740Z 14014KT 24/18 A2987 RMK A01 T02400178  RH  068%=      5-min Rain = 0
KCO1 260741Z 14018KT 24/18 A2987 RMK A01 T02400178  RH  068%=      5-min Rain = 0
KCO1 260742Z 13014KT 24/18 A2987 RMK A01 T02410178  RH  068%=      5-min Rain = 0
KCO1 260743Z 14014G19KT 24/18 A2987 RMK A01 T02410178  RH  068%=      5-min Rain = 0
KCO1 260744Z 14016KT 24/18 A2987 RMK A01 T02410178  RH  068%=      5-min Rain = 0
KCO1 260745Z 14015KT 24/18 A2987 RMK A01 T02410178  RH  068%=      5-min Rain = 0
KCO1 260746Z 14013G18KT 24/18 A2987 RMK A01 T02410178  RH  068%=      5-min Rain = 0
KCO1 260747Z 14013KT 24/18 A2987 RMK A01 T02400178  RH  068%=      5-min Rain = 0
KCO1 260748Z 14014KT 24/18 A2987 RMK A01 T02400178  RH  068%=      5-min Rain = 0
KCO1 260749Z 14013KT 24/18 A2987 RMK A01 T02400178  RH  068%=      5-min Rain = 0
KCO1 260750Z 14012KT 24/18 A2987 RMK A01 T02390178  RH  069%=      5-min Rain = 0
KCO1 260751Z 14013G18KT 24/18 A2987 RMK A01 T02390178  RH  069%=      5-min Rain = 0
KCO1 260752Z 14014KT 24/18 A2987 RMK A01 T02390178  RH  069%=      5-min Rain = 0
KCO1 260753Z 14014KT 24/18 A2987 RMK A01 T02390179  RH  069%=      5-min Rain = 0
KCO1 260754Z 13013KT 24/18 A2987 RMK A01 T02390179  RH  069%=      5-min Rain = 0
KCO1 260755Z 13013G19KT 24/18 A2987 RMK A01 T02390179  RH  069%=      5-min Rain = 0
KCO1 260756Z 13012KT 24/18 A2987 RMK A01 T02390179  RH  069%=      5-min Rain = 0
KCO1 260757Z 13014KT 24/18 A2987 RMK A01 T02380178  RH  069%=      5-min Rain = 0
KCO1 260758Z 13013KT 24/18 A2987 RMK A01 T02380179  RH  069%=      5-min Rain = 0
KCO1 260759Z 13013KT 24/18 A2987 RMK A01 T02380179  RH  070%=      5-min Rain = 0
KCO1 260800Z 13014KT 24/18 A2987 RMK A01 T02380179  RH  070%=      5-min Rain = 0
KCO1 260801Z 13012KT 24/18 A2987 RMK A01 T02380179  RH  070%=      5-min Rain = 0
KCO1 260802Z 13013KT 24/18 A2987 RMK A01 T02370179  RH  070%=      5-min Rain = 0
KCO1 260803Z 13012KT 24/18 A2987 RMK A01 T02370179  RH  070%=      5-min Rain = 0
KCO1 260804Z 13010KT 24/18 A2987 RMK A01 T02370179  RH  070%=      5-min Rain = 0
KCO1 260805Z 13011KT 24/18 A2988 RMK A01 T02360179  RH  070%=      5-min Rain = 0
KCO1 260806Z 13011KT 24/18 A2988 RMK A01 T02360179  RH  070%=      5-min Rain = 0
KCO1 260807Z 13011KT 24/18 A2988 RMK A01 T02360179  RH  071%=      5-min Rain = 0
KCO1 260808Z 13009KT 24/18 A2988 RMK A01 T02360179  RH  071%=      5-min Rain = 0
KCO1 260809Z 13009G14KT 24/18 A2988 RMK A01 T02350179  RH  071%=      5-min Rain = 0
KCO1 260810Z 13013KT 24/18 A2988 RMK A01 T02350179  RH  071%=      5-min Rain = 0
KCO1 260811Z 12012KT 24/18 A2988 RMK A01 T02350179  RH  071%=      5-min Rain = 0
KCO1 260812Z 13012KT 23/18 A2988 RMK A01 T02340179  RH  071%=      5-min Rain = 0
KCO1 260813Z 13010KT 24/18 A2988 RMK A01 T02350180  RH  071%=      5-min Rain = 0
KCO1 260814Z 14009KT 23/18 A2988 RMK A01 T02340180  RH  071%=      5-min Rain = 0
KCO1 260815Z 13011KT 23/18 A2988 RMK A01 T02340180  RH  072%=      5-min Rain = 0
KCO1 260816Z 13010KT 23/18 A2988 RMK A01 T02330180  RH  072%=      5-min Rain = 0
KCO1 260817Z 13010KT 23/18 A2988 RMK A01 T02340180  RH  072%=      5-min Rain = 0
KCO1 260818Z 13011KT 23/18 A2988 RMK A01 T02330180  RH  072%=      5-min Rain = 0
KCO1 260819Z 13011KT 23/18 A2988 RMK A01 T02330180  RH  072%=      5-min Rain = 0
KCO1 260820Z 13010KT 23/18 A2988 RMK A01 T02330180  RH  072%=      5-min Rain = 0
KCO1 260821Z 13010KT 23/18 A2988 RMK A01 T02340181  RH  072%=      5-min Rain = 0
KCO1 260822Z 13009KT 23/18 A2988 RMK A01 T02330180  RH  072%=      5-min Rain = 0
KCO1 260823Z 13012KT 23/18 A2988 RMK A01 T02330181  RH  073%=      5-min Rain = 0
KCO1 260824Z 13010KT 23/18 A2988 RMK A01 T02330181  RH  073%=      5-min Rain = 0
KCO1 260825Z 13010KT 23/18 A2988 RMK A01 T02330181  RH  073%=      5-min Rain = 0
KCO1 260826Z 13011KT 23/18 A2988 RMK A01 T02330181  RH  073%=      5-min Rain = 0
KCO1 260827Z 13010KT 23/18 A2988 RMK A01 T02330182  RH  073%=      5-min Rain = 0
KCO1 260828Z 13009KT 23/18 A2988 RMK A01 T02320181  RH  073%=      5-min Rain = 0
KCO1 260829Z 13009KT 23/18 A2988 RMK A01 T02320182  RH  073%=      5-min Rain = 0
KCO1 260830Z 13009KT 23/18 A2988 RMK A01 T02320182  RH  073%=      5-min Rain = 0
KCO1 260831Z 13011KT 23/18 A2988 RMK A01 T02310182  RH  074%=      5-min Rain = 0
KCO1 260832Z 12010KT 23/18 A2988 RMK A01 T02310182  RH  074%=      5-min Rain = 0
KCO1 260833Z 12010KT 23/18 A2988 RMK A01 T02310182  RH  074%=      5-min Rain = 0
KCO1 260834Z 13009KT 23/18 A2988 RMK A01 T02310182  RH  074%=      5-min Rain = 0
KCO1 260835Z 13012KT 23/18 A2988 RMK A01 T02310182  RH  074%=      5-min Rain = 0
KCO1 260836Z 13011KT 23/18 A2988 RMK A01 T02310183  RH  074%=      5-min Rain = 0
KCO1 260837Z 12011KT 23/18 A2988 RMK A01 T02310183  RH  074%=      5-min Rain = 0
KCO1 260838Z 12009KT 23/18 A2988 RMK A01 T02310183  RH  074%=      5-min Rain = 0
KCO1 260839Z 12007KT 23/18 A2988 RMK A01 T02310183  RH  074%=      5-min Rain = 0
KCO1 260840Z 12009KT 23/18 A2988 RMK A01 T02300183  RH  075%=      5-min Rain = 0
KCO1 260841Z 12008KT 23/18 A2988 RMK A01 T02300183  RH  075%=      5-min Rain = 0
KCO1 260842Z 12009KT 23/18 A2988 RMK A01 T02290183  RH  075%=      5-min Rain = 0
KCO1 260843Z 12009KT 23/18 A2988 RMK A01 T02290183  RH  076%=      5-min Rain = 0
KCO1 260844Z 12010KT 23/18 A2988 RMK A01 T02290184  RH  076%=      5-min Rain = 0
KCO1 260845Z 12009KT 23/18 A2988 RMK A01 T02280184  RH  076%=      5-min Rain = 0
KCO1 260846Z 11008KT 23/18 A2988 RMK A01 T02280184  RH  076%=      5-min Rain = 0
KCO1 260847Z 11008KT 23/18 A2988 RMK A01 T02280184  RH  076%=      5-min Rain = 0
KCO1 260848Z 11009KT 23/18 A2988 RMK A01 T02270184  RH  077%=      5-min Rain = 0
KCO1 260849Z 11008KT 23/18 A2988 RMK A01 T02270184  RH  077%=      5-min Rain = 0
KCO1 260850Z 11008KT 23/19 A2988 RMK A01 T02270185  RH  077%=      5-min Rain = 0
KCO1 260851Z 11008KT 23/18 A2988 RMK A01 T02260184  RH  077%=      5-min Rain = 0
KCO1 260852Z 11010KT 23/19 A2988 RMK A01 T02260185  RH  077%=      5-min Rain = 0
KCO1 260853Z 12009KT 23/19 A2988 RMK A01 T02260185  RH  077%=      5-min Rain = 0
KCO1 260854Z 12008KT 23/19 A2988 RMK A01 T02260185  RH  077%=      5-min Rain = 0
KCO1 260855Z 11008KT 23/19 A2988 RMK A01 T02260185  RH  077%=      5-min Rain = 0
KCO1 260856Z 11009KT 23/19 A2988 RMK A01 T02260185  RH  078%=      5-min Rain = 0
KCO1 260857Z 11008KT 23/19 A2988 RMK A01 T02260185  RH  078%=      5-min Rain = 0
KCO1 260858Z 11009KT 23/19 A2988 RMK A01 T02260185  RH  078%=      5-min Rain = 0
KCO1 260859Z 11008KT 23/19 A2988 RMK A01 T02260186  RH  078%=      5-min Rain = 0
KCO1 260900Z 12008KT 23/19 A2988 RMK A01 T02260186  RH  078%=      5-min Rain = 0
KCO1 260901Z 11008KT 23/19 A2988 RMK A01 T02260186  RH  078%=      5-min Rain = 0
KCO1 260902Z 12009KT 23/19 A2988 RMK A01 T02250186  RH  078%=      5-min Rain = 0
KCO1 260903Z 11010KT 23/19 A2988 RMK A01 T02250186  RH  079%=      5-min Rain = 0
KCO1 260904Z 11009KT 23/19 A2988 RMK A01 T02250186  RH  079%=      5-min Rain = 0
KCO1 260905Z 12007KT 23/19 A2988 RMK A01 T02250186  RH  079%=      5-min Rain = 0
KCO1 260906Z 12009KT 23/19 A2988 RMK A01 T02250186  RH  079%=      5-min Rain = 0
KCO1 260907Z 12007KT 23/19 A2988 RMK A01 T02250187  RH  079%=      5-min Rain = 0
KCO1 260908Z 12009KT 22/19 A2988 RMK A01 T02240187  RH  079%=      5-min Rain = 0
KCO1 260909Z 12008KT 22/19 A2988 RMK A01 T02240187  RH  079%=      5-min Rain = 0
KCO1 260910Z 12008KT 22/19 A2988 RMK A01 T02240187  RH  079%=      5-min Rain = 0
KCO1 260911Z 12008KT 22/19 A2988 RMK A01 T02240186  RH  079%=      5-min Rain = 0
KCO1 260912Z 12009KT 22/19 A2988 RMK A01 T02240187  RH  079%=      5-min Rain = 0
KCO1 260913Z 12008KT 22/19 A2988 RMK A01 T02240187  RH  079%=      5-min Rain = 0
KCO1 260914Z 12009KT 23/19 A2989 RMK A01 T02250187  RH  079%=      5-min Rain = 0
KCO1 260915Z 12008KT 22/19 A2989 RMK A01 T02240187  RH  079%=      5-min Rain = 0
KCO1 260916Z 12008KT 23/19 A2989 RMK A01 T02250187  RH  079%=      5-min Rain = 0
KCO1 260917Z 12008KT 22/19 A2989 RMK A01 T02240187  RH  079%=      5-min Rain = 0
KCO1 260918Z 13008KT 22/19 A2989 RMK A01 T02240187  RH  080%=      5-min Rain = 0
KCO1 260919Z 13009KT 22/19 A2989 RMK A01 T02240187  RH  080%=      5-min Rain = 0
KCO1 260920Z 13008KT 22/19 A2989 RMK A01 T02240187  RH  080%=      5-min Rain = 0
KCO1 260921Z 13008KT 22/19 A2989 RMK A01 T02240187  RH  079%=      5-min Rain = 0
KCO1 260922Z 13008KT 22/19 A2989 RMK A01 T02240187  RH  079%=      5-min Rain = 0
KCO1 260923Z 13009KT 22/19 A2989 RMK A01 T02240187  RH  080%=      5-min Rain = 0
KCO1 260924Z 13009KT 22/19 A2989 RMK A01 T02240187  RH  080%=      5-min Rain = 0
KCO1 260925Z 13008KT 22/19 A2989 RMK A01 T02240187  RH  080%=      5-min Rain = 0
KCO1 260926Z 13009KT 22/19 A2989 RMK A01 T02240187  RH  080%=      5-min Rain = 0
KCO1 260927Z 13008KT 22/19 A2989 RMK A01 T02240187  RH  080%=      5-min Rain = 0
KCO1 260928Z 13009KT 22/19 A299 RMK A01 T02240188  RH  080%=      5-min Rain = 0
KCO1 260929Z 13009KT 22/19 A299 RMK A01 T02230187  RH  080%=      5-min Rain = 0
KCO1 260930Z 13009KT 22/19 A2989 RMK A01 T02240188  RH  080%=      5-min Rain = 0
KCO1 260931Z 13009KT 22/19 A2989 RMK A01 T02240188  RH  080%=      5-min Rain = 0
KCO1 260932Z 13010KT 22/19 A2989 RMK A01 T02230187  RH  080%=      5-min Rain = 0
KCO1 260933Z 13010KT 22/19 A2989 RMK A01 T02230188  RH  080%=      5-min Rain = 0
KCO1 260934Z 13010KT 22/19 A2989 RMK A01 T02230187  RH  080%=      5-min Rain = 0
KCO1 260935Z 13010KT 22/19 A2989 RMK A01 T02230187  RH  080%=      5-min Rain = 0
KCO1 260936Z 13010KT 22/19 A2989 RMK A01 T02220187  RH  080%=      5-min Rain = 0
KCO1 260937Z 13009KT 22/19 A2989 RMK A01 T02230187  RH  080%=      5-min Rain = 0
KCO1 260938Z 13010KT 22/19 A299 RMK A01 T02220187  RH  080%=      5-min Rain = 0
KCO1 260939Z 13009KT 22/19 A299 RMK A01 T02230187  RH  080%=      5-min Rain = 0
KCO1 260940Z 13008KT 22/19 A299 RMK A01 T02230187  RH  080%=      5-min Rain = 0
KCO1 260941Z 14008KT 22/19 A299 RMK A01 T02230187  RH  080%=      5-min Rain = 0
KCO1 260942Z 13008KT 22/19 A299 RMK A01 T02230188  RH  080%=      5-min Rain = 0
KCO1 260943Z 13008KT 22/19 A299 RMK A01 T02220187  RH  080%=      5-min Rain = 0
KCO1 260944Z 13007KT 22/19 A299 RMK A01 T02230187  RH  080%=      5-min Rain = 0
KCO1 260945Z 13008KT 22/19 A299 RMK A01 T02230188  RH  080%=      5-min Rain = 0
KCO1 260946Z 13007KT 22/19 A299 RMK A01 T02220187  RH  081%=      5-min Rain = 0
KCO1 260947Z 12008KT 22/19 A299 RMK A01 T02220187  RH  081%=      5-min Rain = 0
KCO1 260948Z 12009KT 22/19 A299 RMK A01 T02220187  RH  081%=      5-min Rain = 0
KCO1 260949Z 12009KT 22/19 A299 RMK A01 T02220187  RH  081%=      5-min Rain = 0
KCO1 260950Z 12009KT 22/19 A299 RMK A01 T02210187  RH  081%=      5-min Rain = 0
KCO1 260951Z 12010KT 22/19 A299 RMK A01 T02210187  RH  081%=      5-min Rain = 0
KCO1 260952Z 12009KT 22/19 A299 RMK A01 T02210187  RH  081%=      5-min Rain = 0
KCO1 260953Z 12009KT 22/19 A299 RMK A01 T02210187  RH  081%=      5-min Rain = 0
KCO1 260954Z 11009KT 22/19 A299 RMK A01 T02210187  RH  081%=      5-min Rain = 0
KCO1 260955Z 12009KT 22/19 A299 RMK A01 T02210187  RH  081%=      5-min Rain = 0
KCO1 260956Z 11007KT 22/19 A299 RMK A01 T02210187  RH  081%=      5-min Rain = 0
KCO1 260957Z 12008KT 22/19 A299 RMK A01 T02200187  RH  082%=      5-min Rain = 0
KCO1 260958Z 12008KT 22/19 A299 RMK A01 T02200187  RH  082%=      5-min Rain = 0
KCO1 260959Z 12008KT 22/19 A299 RMK A01 T02200187  RH  082%=      5-min Rain = 0
KCO1 261000Z 12008KT 22/19 A299 RMK A01 T02200187  RH  082%=      5-min Rain = 0
KCO1 261001Z 12009KT 22/19 A299 RMK A01 T02210188  RH  081%=      5-min Rain = 0
KCO1 261002Z 12010KT 22/19 A299 RMK A01 T02210188  RH  081%=      5-min Rain = 0
KCO1 261003Z 12009KT 22/19 A299 RMK A01 T02210187  RH  081%=      5-min Rain = 0
KCO1 261004Z 12009KT 22/19 A299 RMK A01 T02210187  RH  081%=      5-min Rain = 0
KCO1 261005Z 11009KT 22/19 A299 RMK A01 T02210187  RH  081%=      5-min Rain = 0
KCO1 261006Z 11009KT 22/19 A299 RMK A01 T02210187  RH  081%=      5-min Rain = 0
KCO1 261007Z 11009KT 22/19 A299 RMK A01 T02210188  RH  081%=      5-min Rain = 0
KCO1 261008Z 12009KT 22/19 A299 RMK A01 T02210188  RH  081%=      5-min Rain = 0
KCO1 261009Z 12009KT 22/19 A299 RMK A01 T02210188  RH  082%=      5-min Rain = 0
KCO1 261010Z 11008KT 22/19 A299 RMK A01 T02210188  RH  082%=      5-min Rain = 0
KCO1 261011Z 12009KT 22/19 A299 RMK A01 T02210188  RH  081%=      5-min Rain = 0
KCO1 261012Z 12009KT 22/19 A299 RMK A01 T02210188  RH  082%=      5-min Rain = 0
KCO1 261013Z 12010KT 22/19 A299 RMK A01 T02210188  RH  081%=      5-min Rain = 0
KCO1 261014Z 12010KT 22/19 A299 RMK A01 T02210188  RH  081%=      5-min Rain = 0
KCO1 261015Z 12010KT 22/19 A299 RMK A01 T02210188  RH  082%=      5-min Rain = 0
KCO1 261016Z 12012KT 22/19 A299 RMK A01 T02210188  RH  082%=      5-min Rain = 0
KCO1 261017Z 12012KT 22/19 A2989 RMK A01 T02210188  RH  082%=      5-min Rain = 0
KCO1 261018Z 12011KT 22/19 A2989 RMK A01 T02210188  RH  081%=      5-min Rain = 0
KCO1 261019Z 12013KT 22/19 A2989 RMK A01 T02210188  RH  081%=      5-min Rain = 0
KCO1 261020Z 12014KT 22/19 A2989 RMK A01 T02210188  RH  081%=      5-min Rain = 0
KCO1 261021Z 12012KT 22/19 A2989 RMK A01 T02210188  RH  082%=      5-min Rain = 0
KCO1 261022Z 12012KT 22/19 A2989 RMK A01 T02210188  RH  082%=      5-min Rain = 0
KCO1 261023Z 12011KT 22/19 A2989 RMK A01 T02210188  RH  082%=      5-min Rain = 0
KCO1 261024Z 12012KT 22/19 A2989 RMK A01 T02210188  RH  082%=      5-min Rain = 0
KCO1 261025Z 12011KT 22/19 A2989 RMK A01 T02210189  RH  082%=      5-min Rain = 0
KCO1 261026Z 12012KT 22/19 A2989 RMK A01 T02210189  RH  082%=      5-min Rain = 0
KCO1 261027Z 12011KT 22/19 A2989 RMK A01 T02210189  RH  082%=      5-min Rain = 0
KCO1 261028Z 12014KT 22/19 A2989 RMK A01 T02210189  RH  082%=      5-min Rain = 0
KCO1 261029Z 12012KT 22/19 A2989 RMK A01 T02220189  RH  081%=      5-min Rain = 0
KCO1 261030Z 12014KT 22/19 A2989 RMK A01 T02220189  RH  081%=      5-min Rain = 0
KCO1 261031Z 12013KT 22/19 A2989 RMK A01 T02220189  RH  081%=      5-min Rain = 0
KCO1 261032Z 12011KT 22/19 A2989 RMK A01 T02220189  RH  081%=      5-min Rain = 0
KCO1 261033Z 11012KT 22/19 A2989 RMK A01 T02220189  RH  081%=      5-min Rain = 0
KCO1 261034Z 11013KT 22/19 A2989 RMK A01 T02220189  RH  081%=      5-min Rain = 0
KCO1 261035Z 12012KT 22/19 A2989 RMK A01 T02220189  RH  081%=      5-min Rain = 0
KCO1 261036Z 12014KT 22/19 A2989 RMK A01 T02230189  RH  081%=      5-min Rain = 0
KCO1 261037Z 12013KT 22/19 A2989 RMK A01 T02230189  RH  081%=      5-min Rain = 0
KCO1 261038Z 12012KT 22/19 A2989 RMK A01 T02230189  RH  081%=      5-min Rain = 0
KCO1 261039Z 12011KT 22/19 A2989 RMK A01 T02230189  RH  081%=      5-min Rain = 0
KCO1 261040Z 12013KT 22/19 A2989 RMK A01 T02240189  RH  081%=      5-min Rain = 0
KCO1 261041Z 12013KT 22/19 A2989 RMK A01 T02240190  RH  081%=      5-min Rain = 0
KCO1 261042Z 12012KT 22/19 A2989 RMK A01 T02240189  RH  081%=      5-min Rain = 0
KCO1 261043Z 12012KT 22/19 A2989 RMK A01 T02240189  RH  081%=      5-min Rain = 0
KCO1 261044Z 12011KT 22/19 A2989 RMK A01 T02240189  RH  081%=      5-min Rain = 0
KCO1 261045Z 12011KT 22/19 A2989 RMK A01 T02230189  RH  081%=      5-min Rain = 0
KCO1 261046Z 12014KT 22/19 A2989 RMK A01 T02240189  RH  081%=      5-min Rain = 0
KCO1 261047Z 12013KT 22/19 A2989 RMK A01 T02240189  RH  081%=      5-min Rain = 0
KCO1 261048Z 12014KT 22/19 A2989 RMK A01 T02240189  RH  081%=      5-min Rain = 0
KCO1 261049Z 12012KT 22/19 A2989 RMK A01 T02240189  RH  080%=      5-min Rain = 0
KCO1 261050Z 12011G16KT 22/19 A2989 RMK A01 T02240189  RH  080%=      5-min Rain = 0
KCO1 261051Z 12013KT 22/19 A2989 RMK A01 T02240189  RH  080%=      5-min Rain = 0
KCO1 261052Z 12013G18KT 23/19 A2989 RMK A01 T02250189  RH  081%=      5-min Rain = 0
KCO1 261053Z 12012KT 22/19 A2989 RMK A01 T02240189  RH  081%=      5-min Rain = 0
KCO1 261054Z 12012KT 23/19 A2989 RMK A01 T02250190  RH  081%=      5-min Rain = 0
KCO1 261055Z 12012KT 22/19 A2989 RMK A01 T02240189  RH  081%=      5-min Rain = 0
KCO1 261056Z 11012KT 22/19 A2989 RMK A01 T02240189  RH  081%=      5-min Rain = 0
KCO1 261057Z 12012KT 22/19 A2989 RMK A01 T02240189  RH  081%=      5-min Rain = 0
KCO1 261058Z 12013KT 22/19 A2989 RMK A01 T02240189  RH  081%=      5-min Rain = 0
KCO1 261059Z 11013KT 22/19 A2989 RMK A01 T02240189  RH  081%=      5-min Rain = 0
KCO1 261100Z 11013KT 22/19 A2989 RMK A01 T02240189  RH  081%=      5-min Rain = 0
KCO1 261101Z 12013KT 22/19 A2989 RMK A01 T02230189  RH  081%=      5-min Rain = 0
KCO1 261102Z 11012KT 22/19 A2989 RMK A01 T02230189  RH  081%=      5-min Rain = 0
KCO1 261103Z 12013KT 22/19 A2989 RMK A01 T02240190  RH  081%=      5-min Rain = 0
KCO1 261104Z 11012KT 22/19 A2989 RMK A01 T02230189  RH  081%=      5-min Rain = 0
KCO1 261105Z 12013KT 22/19 A2989 RMK A01 T02230189  RH  081%=      5-min Rain = 0
KCO1 261106Z 12011KT 22/19 A2989 RMK A01 T02230189  RH  081%=      5-min Rain = 0
KCO1 261107Z 12011KT 22/19 A2989 RMK A01 T02230189  RH  081%=      5-min Rain = 0
KCO1 261108Z 12009KT 22/19 A2989 RMK A01 T02230189  RH  081%=      5-min Rain = 0
KCO1 261109Z 11011KT 22/19 A2989 RMK A01 T02230189  RH  081%=      5-min Rain = 0
KCO1 261110Z 12012KT 22/19 A2989 RMK A01 T02230189  RH  081%=      5-min Rain = 0
KCO1 261111Z 11011KT 22/19 A2989 RMK A01 T02230189  RH  081%=      5-min Rain = 0
KCO1 261112Z 12012KT 22/19 A2989 RMK A01 T02220189  RH  081%=      5-min Rain = 0
KCO1 261113Z 12012KT 22/19 A2989 RMK A01 T02220189  RH  081%=      5-min Rain = 0
KCO1 261114Z 11012KT 22/19 A2989 RMK A01 T02220189  RH  082%=      5-min Rain = 0
KCO1 261115Z 11011KT 22/19 A2989 RMK A01 T02220189  RH  082%=      5-min Rain = 0
KCO1 261116Z 12011KT 22/19 A2989 RMK A01 T02220189  RH  082%=      5-min Rain = 0
KCO1 261117Z 12012KT 22/19 A2989 RMK A01 T02220189  RH  082%=      5-min Rain = 0
KCO1 261118Z 12012KT 22/19 A2989 RMK A01 T02220189  RH  082%=      5-min Rain = 0
KCO1 261119Z 12011KT 22/19 A2989 RMK A01 T02220189  RH  082%=      5-min Rain = 0
KCO1 261120Z 12009KT 22/19 A2989 RMK A01 T02220189  RH  082%=      5-min Rain = 0
KCO1 261121Z 12010KT 22/19 A2989 RMK A01 T02210189  RH  082%=      5-min Rain = 0
KCO1 261122Z 12011KT 22/19 A2989 RMK A01 T02210189  RH  082%=      5-min Rain = 0
KCO1 261123Z 12011KT 22/19 A2989 RMK A01 T02210189  RH  082%=      5-min Rain = 0
KCO1 261124Z 12011KT 22/19 A2989 RMK A01 T02210189  RH  082%=      5-min Rain = 0
KCO1 261125Z 12010KT 22/19 A2989 RMK A01 T02210189  RH  082%=      5-min Rain = 0
KCO1 261126Z 12010KT 22/19 A2989 RMK A01 T02210189  RH  082%=      5-min Rain = 0
KCO1 261127Z 12012KT 22/19 A2989 RMK A01 T02210189  RH  082%=      5-min Rain = 0
KCO1 261128Z 12011KT 22/19 A2989 RMK A01 T02210189  RH  082%=      5-min Rain = 0
KCO1 261129Z 12012KT 22/19 A2989 RMK A01 T02210189  RH  082%=      5-min Rain = 0
KCO1 261130Z 12010KT 22/19 A2989 RMK A01 T02210188  RH  082%=      5-min Rain = 0
KCO1 261131Z 12009KT 22/19 A2989 RMK A01 T02210189  RH  082%=      5-min Rain = 0
KCO1 261132Z 12011KT 22/19 A2989 RMK A01 T02210189  RH  082%=      5-min Rain = 0
KCO1 261133Z 12011KT 22/19 A2989 RMK A01 T02220189  RH  082%=      5-min Rain = 0
KCO1 261134Z 12012KT 22/19 A2989 RMK A01 T02210189  RH  082%=      5-min Rain = 0
KCO1 261135Z 12010KT 22/19 A2989 RMK A01 T02210189  RH  082%=      5-min Rain = 0
KCO1 261136Z 12011KT 22/19 A2989 RMK A01 T02220189  RH  082%=      5-min Rain = 0
KCO1 261137Z 13011KT 22/19 A299 RMK A01 T02210188  RH  082%=      5-min Rain = 0
KCO1 261138Z 12010KT 22/19 A299 RMK A01 T02210189  RH  082%=      5-min Rain = 0
KCO1 261139Z 12012KT 22/19 A299 RMK A01 T02210188  RH  082%=      5-min Rain = 0
KCO1 261140Z 12011KT 22/19 A299 RMK A01 T02210188  RH  082%=      5-min Rain = 0
KCO1 261141Z 12011KT 22/19 A299 RMK A01 T02210188  RH  082%=      5-min Rain = 0
KCO1 261142Z 12010KT 22/19 A299 RMK A01 T02210188  RH  082%=      5-min Rain = 0
KCO1 261143Z 12011KT 22/19 A299 RMK A01 T02210188  RH  082%=      5-min Rain = 0
KCO1 261144Z 13010KT 22/19 A299 RMK A01 T02210188  RH  082%=      5-min Rain = 0
KCO1 261145Z 12011KT 22/19 A299 RMK A01 T02210188  RH  082%=      5-min Rain = 0
KCO1 261146Z 12010KT 22/19 A299 RMK A01 T02210188  RH  082%=      5-min Rain = 0
KCO1 261147Z 12011KT 22/19 A299 RMK A01 T02210189  RH  082%=      5-min Rain = 0
KCO1 261148Z 12010KT 22/19 A299 RMK A01 T02210188  RH  082%=      5-min Rain = 0
KCO1 261149Z 12010KT 22/19 A299 RMK A01 T02210189  RH  082%=      5-min Rain = 0
KCO1 261150Z 12010KT 22/19 A299 RMK A01 T02210189  RH  082%=      5-min Rain = 0
KCO1 261151Z 12011KT 22/19 A299 RMK A01 T02210188  RH  082%=      5-min Rain = 0
KCO1 261152Z 13010KT 22/19 A299 RMK A01 T02210188  RH  082%=      5-min Rain = 0
KCO1 261153Z 13011KT 22/19 A299 RMK A01 T02210188  RH  082%=      5-min Rain = 0
KCO1 261154Z 12010KT 22/19 A299 RMK A01 T02210188  RH  081%=      5-min Rain = 0
KCO1 261155Z 12009KT 22/19 A299 RMK A01 T02210188  RH  081%=      5-min Rain = 0
KCO1 261156Z 12011KT 22/19 A299 RMK A01 T02220188  RH  081%=      5-min Rain = 0
KCO1 261157Z 13010KT 22/19 A299 RMK A01 T02210188  RH  081%=      5-min Rain = 0
KCO1 261158Z 13010KT 22/19 A299 RMK A01 T02210188  RH  082%=      5-min Rain = 0
KCO1 261159Z 13010KT 22/19 A299 RMK A01 T02210188  RH  082%=      5-min Rain = 0
KCO1 261200Z 13010KT 22/19 A299 RMK A01 T02210188  RH  082%=      5-min Rain = 0
KCO1 261201Z 13011KT 22/19 A299 RMK A01 T02210188  RH  082%=      5-min Rain = 0
KCO1 261202Z 13011KT 22/19 A299 RMK A01 T02210188  RH  082%=      5-min Rain = 0
KCO1 261203Z 12010KT 22/19 A299 RMK A01 T02210188  RH  082%=      5-min Rain = 0
KCO1 261204Z 13010KT 22/19 A299 RMK A01 T02210188  RH  082%=      5-min Rain = 0
KCO1 261205Z 13009KT 22/19 A299 RMK A01 T02210188  RH  082%=      5-min Rain = 0
KCO1 261206Z 12011KT 22/19 A299 RMK A01 T02210188  RH  082%=      5-min Rain = 0
KCO1 261207Z 13010KT 22/19 A299 RMK A01 T02210188  RH  082%=      5-min Rain = 0
KCO1 261208Z 12009KT 22/19 A299 RMK A01 T02200188  RH  082%=      5-min Rain = 0
KCO1 261209Z 13010KT 22/19 A2991 RMK A01 T02200188  RH  082%=      5-min Rain = 0
KCO1 261210Z 13011KT 22/19 A2991 RMK A01 T02200188  RH  082%=      5-min Rain = 0
KCO1 261211Z 13009KT 22/19 A2991 RMK A01 T02200188  RH  082%=      5-min Rain = 0
KCO1 261212Z 12010KT 22/19 A2991 RMK A01 T02200188  RH  082%=      5-min Rain = 0
KCO1 261213Z 12011KT 22/19 A2991 RMK A01 T02200188  RH  082%=      5-min Rain = 0
KCO1 261214Z 12011KT 22/19 A2991 RMK A01 T02200188  RH  082%=      5-min Rain = 0
KCO1 261215Z 12010KT 22/19 A2991 RMK A01 T02210188  RH  082%=      5-min Rain = 0
KCO1 261216Z 12012KT 22/19 A2991 RMK A01 T02210188  RH  082%=      5-min Rain = 0
KCO1 261217Z 12012KT 22/19 A2991 RMK A01 T02210188  RH  082%=      5-min Rain = 0
KCO1 261218Z 12009KT 22/19 A2991 RMK A01 T02210188  RH  082%=      5-min Rain = 0
KCO1 261219Z 12011KT 22/19 A2991 RMK A01 T02210188  RH  082%=      5-min Rain = 0
KCO1 261220Z 12013KT 22/19 A2991 RMK A01 T02210188  RH  082%=      5-min Rain = 0
KCO1 261221Z 12010KT 22/19 A2991 RMK A01 T02210188  RH  082%=      5-min Rain = 0
KCO1 261222Z 12010KT 22/19 A2991 RMK A01 T02210189  RH  082%=      5-min Rain = 0
KCO1 261223Z 12010KT 22/19 A2991 RMK A01 T02210189  RH  082%=      5-min Rain = 0
KCO1 261224Z 11011KT 22/19 A2991 RMK A01 T02210189  RH  082%=      5-min Rain = 0
KCO1 261225Z 12012KT 22/19 A2991 RMK A01 T02210189  RH  082%=      5-min Rain = 0
KCO1 261226Z 12010KT 22/19 A2991 RMK A01 T02210189  RH  082%=      5-min Rain = 0
KCO1 261227Z 12010KT 22/19 A2991 RMK A01 T02210189  RH  082%=      5-min Rain = 0
KCO1 261228Z 11011KT 22/19 A2991 RMK A01 T02210189  RH  082%=      5-min Rain = 0
KCO1 261229Z 12012KT 22/19 A2991 RMK A01 T02210189  RH  082%=      5-min Rain = 0
KCO1 261230Z 12012KT 22/19 A2991 RMK A01 T02210189  RH  082%=      5-min Rain = 0
KCO1 261231Z 12008KT 22/19 A2991 RMK A01 T02220189  RH  082%=      5-min Rain = 0
KCO1 261232Z 11010KT 22/19 A2991 RMK A01 T02220189  RH  082%=      5-min Rain = 0
KCO1 261233Z 12013KT 22/19 A2991 RMK A01 T02220189  RH  082%=      5-min Rain = 0
KCO1 261234Z 12009KT 22/19 A2991 RMK A01 T02220189  RH  082%=      5-min Rain = 0
KCO1 261235Z 12011KT 22/19 A2991 RMK A01 T02220189  RH  082%=      5-min Rain = 0
KCO1 261236Z 12010KT 22/19 A2991 RMK A01 T02220190  RH  082%=      5-min Rain = 0
KCO1 261237Z 13010KT 22/19 A2991 RMK A01 T02220190  RH  082%=      5-min Rain = 0
KCO1 261238Z 12011KT 22/19 A2991 RMK A01 T02220190  RH  082%=      5-min Rain = 0
KCO1 261239Z 12009KT 22/19 A2992 RMK A01 T02230190  RH  082%=      5-min Rain = 0
KCO1 261240Z 12011KT 22/19 A2992 RMK A01 T02220190  RH  082%=      5-min Rain = 0
KCO1 261241Z 12012KT 22/19 A2992 RMK A01 T02230190  RH  082%=      5-min Rain = 0
KCO1 261242Z 12011KT 22/19 A2992 RMK A01 T02230190  RH  081%=      5-min Rain = 0
KCO1 261243Z 12012KT 22/19 A2992 RMK A01 T02240190  RH  081%=      5-min Rain = 0
KCO1 261244Z 12011KT 22/19 A2992 RMK A01 T02230190  RH  081%=      5-min Rain = 0
KCO1 261245Z 12012KT 22/19 A2992 RMK A01 T02240190  RH  081%=      5-min Rain = 0
KCO1 261246Z 13011KT 22/19 A2992 RMK A01 T02240190  RH  081%=      5-min Rain = 0
KCO1 261247Z 12012KT 22/19 A2992 RMK A01 T02240190  RH  081%=      5-min Rain = 0
KCO1 261248Z 12013KT 22/19 A2992 RMK A01 T02240190  RH  081%=      5-min Rain = 0
KCO1 261249Z 12013KT 22/19 A2992 RMK A01 T02240190  RH  081%=      5-min Rain = 0
KCO1 261250Z 12009KT 22/19 A2992 RMK A01 T02240190  RH  081%=      5-min Rain = 0
KCO1 261251Z 12009KT 22/19 A2992 RMK A01 T02240191  RH  081%=      5-min Rain = 0
KCO1 261252Z 12012KT 23/19 A2993 RMK A01 T02250191  RH  081%=      5-min Rain = 0
KCO1 261253Z 12012KT 22/19 A2993 RMK A01 T02240190  RH  081%=      5-min Rain = 0
KCO1 261254Z 12012KT 23/19 A2993 RMK A01 T02250190  RH  081%=      5-min Rain = 0
KCO1 261255Z 12013KT 23/19 A2993 RMK A01 T02250190  RH  081%=      5-min Rain = 0
KCO1 261256Z 12009KT 23/19 A2993 RMK A01 T02250191  RH  081%=      5-min Rain = 0
KCO1 261257Z 12009KT 23/19 A2993 RMK A01 T02250191  RH  081%=      5-min Rain = 0
KCO1 261258Z 12009G14KT 23/19 A2993 RMK A01 T02250191  RH  081%=      5-min Rain = 0
KCO1 261259Z 12011KT 23/19 A2993 RMK A01 T02250191  RH  081%=      5-min Rain = 0
KCO1 261300Z 12010KT 23/19 A2993 RMK A01 T02260191  RH  081%=      5-min Rain = 0
KCO1 261301Z 12012KT 23/19 A2993 RMK A01 T02260191  RH  081%=      5-min Rain = 0
KCO1 261302Z 12012KT 23/19 A2993 RMK A01 T02260192  RH  081%=      5-min Rain = 0
KCO1 261303Z 12011KT 23/19 A2993 RMK A01 T02260191  RH  081%=      5-min Rain = 0
KCO1 261304Z 12012KT 23/19 A2993 RMK A01 T02260191  RH  080%=      5-min Rain = 0
KCO1 261305Z 12013KT 23/19 A2993 RMK A01 T02270191  RH  080%=      5-min Rain = 0
KCO1 261306Z 12014KT 23/19 A2993 RMK A01 T02270191  RH  080%=      5-min Rain = 0
KCO1 261307Z 12014KT 23/19 A2993 RMK A01 T02280191  RH  080%=      5-min Rain = 0
KCO1 261308Z 12012KT 23/19 A2993 RMK A01 T02280192  RH  080%=      5-min Rain = 0
KCO1 261309Z 12013KT 23/19 A2993 RMK A01 T02290192  RH  080%=      5-min Rain = 0
KCO1 261310Z 12012KT 23/19 A2993 RMK A01 T02300192  RH  079%=      5-min Rain = 0
KCO1 261311Z 12012KT 23/19 A2993 RMK A01 T02310193  RH  079%=      5-min Rain = 0
KCO1 261312Z 12012KT 23/19 A2994 RMK A01 T02320193  RH  079%=      5-min Rain = 0
KCO1 261313Z 12011KT 23/19 A2994 RMK A01 T02330193  RH  078%=      5-min Rain = 0
KCO1 261314Z 12012KT 23/19 A2994 RMK A01 T02330193  RH  078%=      5-min Rain = 0
KCO1 261315Z 12012KT 23/19 A2994 RMK A01 T02330193  RH  078%=      5-min Rain = 0
KCO1 261316Z 12012KT 23/19 A2994 RMK A01 T02330193  RH  078%=      5-min Rain = 0
KCO1 261317Z 12013KT 23/19 A2994 RMK A01 T02330193  RH  078%=      5-min Rain = 0
KCO1 261318Z 12013KT 23/19 A2994 RMK A01 T02330193  RH  078%=      5-min Rain = 0
KCO1 261319Z 12013KT 23/19 A2994 RMK A01 T02340193  RH  078%=      5-min Rain = 0
KCO1 261320Z 12015KT 23/19 A2993 RMK A01 T02340193  RH  078%=      5-min Rain = 0
KCO1 261321Z 12013KT 23/19 A2993 RMK A01 T02340193  RH  078%=      5-min Rain = 0
KCO1 261322Z 12014KT 23/19 A2993 RMK A01 T02340193  RH  078%=      5-min Rain = 0
KCO1 261323Z 11015KT 23/19 A2993 RMK A01 T02340193  RH  078%=      5-min Rain = 0
KCO1 261324Z 12013KT 23/19 A2993 RMK A01 T02330193  RH  078%=      5-min Rain = 0
KCO1 261325Z 12012KT 23/19 A2993 RMK A01 T02330193  RH  078%=      5-min Rain = 0
KCO1 261326Z 12015KT 23/19 A2993 RMK A01 T02340193  RH  078%=      5-min Rain = 0
KCO1 261327Z 12015KT 23/19 A2993 RMK A01 T02340193  RH  078%=      5-min Rain = 0
KCO1 261328Z 12015KT 23/19 A2993 RMK A01 T02340192  RH  077%=      5-min Rain = 0
KCO1 261329Z 12014KT 23/19 A2993 RMK A01 T02340192  RH  077%=      5-min Rain = 0
KCO1 261330Z 12015KT 24/19 A2993 RMK A01 T02350192  RH  077%=      5-min Rain = 0
KCO1 261331Z 12015KT 24/19 A2993 RMK A01 T02350192  RH  077%=      5-min Rain = 0
KCO1 261332Z 12017KT 24/19 A2993 RMK A01 T02350192  RH  077%=      5-min Rain = 0
KCO1 261333Z 12017KT 24/19 A2993 RMK A01 T02350192  RH  077%=      5-min Rain = 0
KCO1 261334Z 12017KT 24/19 A2993 RMK A01 T02350192  RH  077%=      5-min Rain = 0
KCO1 261335Z 12015KT 24/19 A2993 RMK A01 T02350192  RH  077%=      5-min Rain = 0
KCO1 261336Z 12012KT 24/19 A2993 RMK A01 T02350193  RH  077%=      5-min Rain = 0
KCO1 261337Z 12013G18KT 24/19 A2993 RMK A01 T02360193  RH  077%=      5-min Rain = 0
KCO1 261338Z 12015KT 24/19 A2993 RMK A01 T02360193  RH  077%=      5-min Rain = 0
KCO1 261339Z 12016KT 24/19 A2993 RMK A01 T02360193  RH  077%=      5-min Rain = 0
KCO1 261340Z 12016KT 24/19 A2993 RMK A01 T02360193  RH  077%=      5-min Rain = 0
KCO1 261341Z 12017KT 24/19 A2993 RMK A01 T02360193  RH  077%=      5-min Rain = 0
KCO1 261342Z 12015KT 24/19 A2993 RMK A01 T02360193  RH  077%=      5-min Rain = 0
KCO1 261343Z 12015KT 24/19 A2993 RMK A01 T02360193  RH  077%=      5-min Rain = 0
KCO1 261344Z 12015KT 24/19 A2993 RMK A01 T02370193  RH  076%=      5-min Rain = 0
KCO1 261345Z 12015KT 24/19 A2993 RMK A01 T02380193  RH  076%=      5-min Rain = 0
KCO1 261346Z 13015G20KT 24/19 A2993 RMK A01 T02390193  RH  076%=      5-min Rain = 0
KCO1 261347Z 12017KT 24/19 A2993 RMK A01 T02390193  RH  075%=      5-min Rain = 0
KCO1 261348Z 12016KT 24/19 A2993 RMK A01 T02400193  RH  075%=      5-min Rain = 0
KCO1 261349Z 12018KT 24/19 A2993 RMK A01 T02400193  RH  075%=      5-min Rain = 0
KCO1 261350Z 12016KT 24/19 A2993 RMK A01 T02400193  RH  075%=      5-min Rain = 0
KCO1 261351Z 13014KT 24/19 A2994 RMK A01 T02400193  RH  075%=      5-min Rain = 0
KCO1 261352Z 13014KT 24/19 A2993 RMK A01 T02400193  RH  075%=      5-min Rain = 0
KCO1 261353Z 12015KT 24/19 A2994 RMK A01 T02400194  RH  075%=      5-min Rain = 0
KCO1 261354Z 12015KT 24/19 A2994 RMK A01 T02400193  RH  075%=      5-min Rain = 0
KCO1 261355Z 13016KT 24/19 A2994 RMK A01 T02410193  RH  075%=      5-min Rain = 0
KCO1 261356Z 12014KT 24/19 A2994 RMK A01 T02400193  RH  075%=      5-min Rain = 0
KCO1 261357Z 12015KT 24/19 A2994 RMK A01 T02410193  RH  075%=      5-min Rain = 0
KCO1 261358Z 13014KT 24/19 A2994 RMK A01 T02400193  RH  075%=      5-min Rain = 0
KCO1 261359Z 12013KT 24/19 A2994 RMK A01 T02410194  RH  075%=      5-min Rain = 0
KCO1 261400Z 12013KT 24/19 A2994 RMK A01 T02420194  RH  074%=      5-min Rain = 0
KCO1 261401Z 13014KT 24/19 A2994 RMK A01 T02430194  RH  074%=      5-min Rain = 0
KCO1 261402Z 12016KT 24/19 A2994 RMK A01 T02430194  RH  074%=      5-min Rain = 0
KCO1 261403Z 12016G21KT 24/19 A2994 RMK A01 T02430193  RH  074%=      5-min Rain = 0
KCO1 261404Z 12017KT 24/19 A2994 RMK A01 T02430193  RH  073%=      5-min Rain = 0
KCO1 261405Z 13014KT 24/19 A2994 RMK A01 T02430193  RH  074%=      5-min Rain = 0
KCO1 261406Z 13011KT 24/19 A2994 RMK A01 T02440194  RH  074%=      5-min Rain = 0
KCO1 261407Z 13014KT 25/19 A2994 RMK A01 T02460194  RH  073%=      5-min Rain = 0
KCO1 261408Z 13015KT 25/19 A2994 RMK A01 T02460193  RH  072%=      5-min Rain = 0
KCO1 261409Z 13015KT 25/19 A2994 RMK A01 T02460193  RH  072%=      5-min Rain = 0
KCO1 261410Z 13014KT 25/19 A2994 RMK A01 T02470193  RH  072%=      5-min Rain = 0
KCO1 261411Z 14013KT 25/19 A2994 RMK A01 T02490194  RH  072%=      5-min Rain = 0
KCO1 261412Z 12011G16KT 25/20 A2994 RMK A01 T02510196  RH  072%=      5-min Rain = 0
KCO1 261413Z 13015KT 25/20 A2994 RMK A01 T02520195  RH  071%=      5-min Rain = 0
KCO1 261414Z 13017KT 25/19 A2994 RMK A01 T02520194  RH  070%=      5-min Rain = 0
KCO1 261415Z 12014KT 25/19 A2994 RMK A01 T02510194  RH  070%=      5-min Rain = 0
KCO1 261416Z 13016KT 25/19 A2994 RMK A01 T02510194  RH  071%=      5-min Rain = 0
KCO1 261417Z 13015KT 25/19 A2994 RMK A01 T02500192  RH  070%=      5-min Rain = 0
KCO1 261418Z 13013KT 25/19 A2994 RMK A01 T02500193  RH  071%=      5-min Rain = 0
KCO1 261419Z 12013KT 25/19 A2994 RMK A01 T02510194  RH  071%=      5-min Rain = 0
KCO1 261420Z 13016KT 25/19 A2994 RMK A01 T02510193  RH  070%=      5-min Rain = 0
KCO1 261421Z 13015KT 25/19 A2994 RMK A01 T02510193  RH  070%=      5-min Rain = 0
KCO1 261422Z 13016KT 25/19 A2994 RMK A01 T02510193  RH  070%=      5-min Rain = 0
KCO1 261423Z 13013KT 25/19 A2994 RMK A01 T02510194  RH  070%=      5-min Rain = 0
KCO1 261424Z 12014G19KT 25/19 A2994 RMK A01 T02520194  RH  070%=      5-min Rain = 0
KCO1 261425Z 12015KT 25/19 A2994 RMK A01 T02520193  RH  070%=      5-min Rain = 0
KCO1 261426Z 12014G19KT 25/19 A2994 RMK A01 T02530194  RH  070%=      5-min Rain = 0
KCO1 261427Z 12015KT 25/19 A2994 RMK A01 T02520193  RH  070%=      5-min Rain = 0
KCO1 261428Z 13014KT 25/19 A2994 RMK A01 T02520194  RH  070%=      5-min Rain = 0
KCO1 261429Z 13013KT 25/19 A2994 RMK A01 T02520193  RH  069%=      5-min Rain = 0
KCO1 261430Z 13011KT 25/19 A2994 RMK A01 T02530194  RH  070%=      5-min Rain = 0
KCO1 261431Z 13012KT 25/20 A2995 RMK A01 T02540195  RH  070%=      5-min Rain = 0
KCO1 261432Z 13015KT 26/19 A2995 RMK A01 T02550193  RH  069%=      5-min Rain = 0
KCO1 261433Z 13015KT 26/19 A2995 RMK A01 T02550194  RH  069%=      5-min Rain = 0
KCO1 261434Z 13015KT 25/19 A2995 RMK A01 T02540193  RH  069%=      5-min Rain = 0
KCO1 261435Z 13016KT 25/19 A2995 RMK A01 T02530193  RH  069%=      5-min Rain = 0
KCO1 261436Z 13015KT 25/19 A2995 RMK A01 T02530193  RH  069%=      5-min Rain = 0
KCO1 261437Z 13014KT 25/19 A2995 RMK A01 T02520193  RH  070%=      5-min Rain = 0
KCO1 261438Z 13011KT 25/19 A2995 RMK A01 T02530194  RH  070%=      5-min Rain = 0
KCO1 261439Z 12016KT 25/19 A2995 RMK A01 T02530194  RH  070%=      5-min Rain = 0
KCO1 261440Z 13014KT 25/19 A2995 RMK A01 T02530194  RH  070%=      5-min Rain = 0
KCO1 261441Z 12013KT 25/20 A2995 RMK A01 T02520195  RH  070%=      5-min Rain = 0
KCO1 261442Z 12013KT 25/20 A2995 RMK A01 T02520195  RH  070%=      5-min Rain = 0
KCO1 261443Z 12014KT 25/19 A2995 RMK A01 T02530194  RH  070%=      5-min Rain = 0
KCO1 261444Z 12014KT 25/19 A2995 RMK A01 T02530194  RH  070%=      5-min Rain = 0
KCO1 261445Z 13015KT 25/19 A2995 RMK A01 T02530194  RH  070%=      5-min Rain = 0
KCO1 261446Z 13015KT 25/19 A2995 RMK A01 T02540194  RH  069%=      5-min Rain = 0
KCO1 261447Z 13012KT 25/19 A2995 RMK A01 T02530194  RH  070%=      5-min Rain = 0
KCO1 261448Z 12013G18KT 25/20 A2995 RMK A01 T02540195  RH  070%=      5-min Rain = 0
KCO1 261449Z 13016KT 26/19 A2994 RMK A01 T02560194  RH  069%=      5-min Rain = 0
KCO1 261450Z 13015KT 26/19 A2995 RMK A01 T02560194  RH  069%=      5-min Rain = 0
KCO1 261451Z 13015KT 26/19 A2995 RMK A01 T02560194  RH  069%=      5-min Rain = 0
KCO1 261452Z 12016KT 26/19 A2995 RMK A01 T02550194  RH  069%=      5-min Rain = 0
KCO1 261453Z 12013KT 25/19 A2995 RMK A01 T02540194  RH  069%=      5-min Rain = 0
KCO1 261454Z 12013KT 25/20 A2995 RMK A01 T02540195  RH  070%=      5-min Rain = 0
KCO1 261455Z 13012KT 26/20 A2995 RMK A01 T02550195  RH  069%=      5-min Rain = 0
KCO1 261456Z 12014KT 26/20 A2994 RMK A01 T02550195  RH  069%=      5-min Rain = 0
KCO1 261457Z 12016KT 26/19 A2994 RMK A01 T02560194  RH  069%=      5-min Rain = 0
KCO1 261458Z 13016KT 26/19 A2994 RMK A01 T02550193  RH  069%=      5-min Rain = 0
KCO1 261459Z 12014KT 26/19 A2994 RMK A01 T02550194  RH  069%=      5-min Rain = 0
KCO1 261500Z 12014KT 26/20 A2994 RMK A01 T02550195  RH  069%=      5-min Rain = 0
KCO1 261501Z 13016KT 26/20 A2994 RMK A01 T02560195  RH  069%=      5-min Rain = 0
KCO1 261502Z 13015KT 26/20 A2995 RMK A01 T02570195  RH  069%=      5-min Rain = 0
KCO1 261503Z 12015KT 26/20 A2994 RMK A01 T02570195  RH  069%=      5-min Rain = 0
KCO1 261504Z 12015KT 26/20 A2994 RMK A01 T02570195  RH  068%=      5-min Rain = 0
KCO1 261505Z 12014KT 26/20 A2994 RMK A01 T02580195  RH  068%=      5-min Rain = 0
KCO1 261506Z 12013KT 26/20 A2994 RMK A01 T02570196  RH  069%=      5-min Rain = 0
KCO1 261507Z 12014G19KT 26/20 A2994 RMK A01 T02570195  RH  069%=      5-min Rain = 0
KCO1 261508Z 12012G17KT 26/20 A2994 RMK A01 T02570195  RH  068%=      5-min Rain = 0
KCO1 261509Z 12012KT 26/20 A2994 RMK A01 T02570195  RH  069%=      5-min Rain = 0
KCO1 261510Z 12013KT 26/20 A2994 RMK A01 T02580195  RH  068%=      5-min Rain = 0
KCO1 261511Z 12015KT 26/20 A2994 RMK A01 T02590195  RH  068%=      5-min Rain = 0
KCO1 261512Z 12013KT 26/20 A2994 RMK A01 T02580195  RH  068%=      5-min Rain = 0
KCO1 261513Z 12014KT 26/20 A2994 RMK A01 T02580195  RH  068%=      5-min Rain = 0
KCO1 261514Z 12016KT 26/20 A2994 RMK A01 T02590195  RH  068%=      5-min Rain = 0
KCO1 261515Z 12016KT 26/19 A2994 RMK A01 T02590194  RH  067%=      5-min Rain = 0
KCO1 261516Z 12017KT 26/19 A2994 RMK A01 T02590194  RH  067%=      5-min Rain = 0
KCO1 261517Z 12015KT 26/19 A2994 RMK A01 T02590193  RH  067%=      5-min Rain = 0
KCO1 261518Z 12014KT 26/19 A2995 RMK A01 T02590193  RH  067%=      5-min Rain = 0
KCO1 261519Z 12013KT 26/20 A2995 RMK A01 T02600195  RH  067%=      5-min Rain = 0
KCO1 261520Z 12015G20KT 26/20 A2995 RMK A01 T02620196  RH  067%=      5-min Rain = 0
KCO1 261521Z 12016KT 26/20 A2995 RMK A01 T02620195  RH  066%=      5-min Rain = 0
KCO1 261522Z 12016KT 26/19 A2995 RMK A01 T02620194  RH  066%=      5-min Rain = 0
KCO1 261523Z 12016KT 26/20 A2995 RMK A01 T02620195  RH  066%=      5-min Rain = 0
KCO1 261524Z 12015KT 26/20 A2995 RMK A01 T02620195  RH  066%=      5-min Rain = 0
KCO1 261525Z 13014KT 26/20 A2995 RMK A01 T02620195  RH  067%=      5-min Rain = 0
KCO1 261526Z 12014KT 26/20 A2995 RMK A01 T02640197  RH  067%=      5-min Rain = 0
KCO1 261527Z 12015KT 27/20 A2995 RMK A01 T02650196  RH  066%=      5-min Rain = 0
KCO1 261528Z 12015KT 27/20 A2995 RMK A01 T02650196  RH  066%=      5-min Rain = 0
KCO1 261529Z 12015KT 27/20 A2995 RMK A01 T02650195  RH  065%=      5-min Rain = 0
KCO1 261530Z 11016KT 26/20 A2995 RMK A01 T02640195  RH  066%=      5-min Rain = 0
KCO1 261531Z 12013KT 26/20 A2995 RMK A01 T02640196  RH  066%=      5-min Rain = 0
KCO1 261532Z 12012KT 26/20 A2995 RMK A01 T02630195  RH  066%=      5-min Rain = 0
KCO1 261533Z 12013KT 26/20 A2995 RMK A01 T02640195  RH  066%=      5-min Rain = 0
KCO1 261534Z 12014KT 26/20 A2995 RMK A01 T02640195  RH  066%=      5-min Rain = 0
KCO1 261535Z 12016KT 26/20 A2995 RMK A01 T02640195  RH  065%=      5-min Rain = 0
KCO1 261536Z 12016KT 27/20 A2995 RMK A01 T02650195  RH  065%=      5-min Rain = 0
KCO1 261537Z 12017KT 26/19 A2995 RMK A01 T02640194  RH  066%=      5-min Rain = 0
KCO1 261538Z 12013KT 26/19 A2995 RMK A01 T02630194  RH  066%=      5-min Rain = 0
KCO1 261539Z 13016KT 26/20 A2995 RMK A01 T02630195  RH  066%=      5-min Rain = 0
KCO1 261540Z 12014KT 26/20 A2995 RMK A01 T02640195  RH  066%=      5-min Rain = 0
KCO1 261541Z 12013KT 27/20 A2995 RMK A01 T02650195  RH  066%=      5-min Rain = 0
KCO1 261542Z 12013G18KT 27/20 A2995 RMK A01 T02660197  RH  066%=      5-min Rain = 0
KCO1 261543Z 12016KT 27/20 A2995 RMK A01 T02680197  RH  065%=      5-min Rain = 0
KCO1 261544Z 12015KT 27/20 A2995 RMK A01 T02690196  RH  064%=      5-min Rain = 0
KCO1 261545Z 12014KT 27/20 A2995 RMK A01 T02680196  RH  065%=      5-min Rain = 0
KCO1 261546Z 13014KT 27/20 A2995 RMK A01 T02690197  RH  065%=      5-min Rain = 0
KCO1 261547Z 13016KT 27/20 A2995 RMK A01 T02690197  RH  064%=      5-min Rain = 0
KCO1 261548Z 13015KT 27/20 A2995 RMK A01 T02700196  RH  064%=      5-min Rain = 0
KCO1 261549Z 12013KT 27/20 A2995 RMK A01 T02700198  RH  064%=      5-min Rain = 0
KCO1 261550Z 12014KT 27/20 A2995 RMK A01 T02720197  RH  064%=      5-min Rain = 0
KCO1 261551Z 12015KT 27/20 A2995 RMK A01 T02720196  RH  063%=      5-min Rain = 0
KCO1 261552Z 12014KT 27/20 A2995 RMK A01 T02710197  RH  064%=      5-min Rain = 0
KCO1 261553Z 12016KT 27/20 A2995 RMK A01 T02710195  RH  063%=      5-min Rain = 0
KCO1 261554Z 12017KT 27/19 A2995 RMK A01 T02710194  RH  063%=      5-min Rain = 0
KCO1 261555Z 11017KT 27/19 A2995 RMK A01 T02700193  RH  063%=      5-min Rain = 0
KCO1 261556Z 11015KT 27/19 A2995 RMK A01 T02700194  RH  063%=      5-min Rain = 0
KCO1 261557Z 12015KT 27/20 A2995 RMK A01 T02710195  RH  063%=      5-min Rain = 0
KCO1 261558Z 12013KT 27/20 A2995 RMK A01 T02730196  RH  063%=      5-min Rain = 0
KCO1 261559Z 12015KT 28/20 A2995 RMK A01 T02760197  RH  062%=      5-min Rain = 0
KCO1 261600Z 12016KT 28/20 A2995 RMK A01 T02760196  RH  062%=      5-min Rain = 0
KCO1 261601Z 13016KT 28/20 A2995 RMK A01 T02750195  RH  062%=      5-min Rain = 0
KCO1 261602Z 12017KT 27/20 A2995 RMK A01 T02730195  RH  062%=      5-min Rain = 0
KCO1 261603Z 11015KT 27/20 A2995 RMK A01 T02730196  RH  063%=      5-min Rain = 0
KCO1 261604Z 12014KT 27/20 A2995 RMK A01 T02720196  RH  063%=      5-min Rain = 0
KCO1 261605Z 12015KT 27/20 A2995 RMK A01 T02720195  RH  063%=      5-min Rain = 0
KCO1 261606Z 12017KT 27/20 A2995 RMK A01 T02710195  RH  063%=      5-min Rain = 0
KCO1 261607Z 13016KT 27/19 A2995 RMK A01 T02710193  RH  062%=      5-min Rain = 0
KCO1 261608Z 13014KT 27/20 A2994 RMK A01 T02700195  RH  063%=      5-min Rain = 0
KCO1 261609Z 13016KT 27/20 A2995 RMK A01 T02710195  RH  063%=      5-min Rain = 0
KCO1 261610Z 12015KT 27/19 A2994 RMK A01 T02710194  RH  063%=      5-min Rain = 0
KCO1 261611Z 12015KT 27/20 A2994 RMK A01 T02710195  RH  063%=      5-min Rain = 0
KCO1 261612Z 12016KT 27/20 A2994 RMK A01 T02700196  RH  064%=      5-min Rain = 0
KCO1 261613Z 12014KT 27/20 A2994 RMK A01 T02700195  RH  063%=      5-min Rain = 0
KCO1 261614Z 12012G19KT 27/20 A2994 RMK A01 T02710196  RH  063%=      5-min Rain = 0
KCO1 261615Z 12014KT 27/20 A2994 RMK A01 T02730196  RH  063%=      5-min Rain = 0
KCO1 261616Z 12012KT 27/20 A2994 RMK A01 T02740196  RH  063%=      5-min Rain = 0
KCO1 261617Z 12013KT 28/20 A2994 RMK A01 T02750196  RH  062%=      5-min Rain = 0
KCO1 261618Z 11015KT 28/20 A2994 RMK A01 T02750196  RH  062%=      5-min Rain = 0
KCO1 261619Z 12014KT 27/20 A2994 RMK A01 T02740196  RH  062%=      5-min Rain = 0
KCO1 261620Z 12015KT 27/20 A2994 RMK A01 T02730196  RH  063%=      5-min Rain = 0
KCO1 261621Z 12017KT 27/19 A2994 RMK A01 T02740194  RH  062%=      5-min Rain = 0
KCO1 261622Z 12013KT 27/19 A2994 RMK A01 T02730194  RH  062%=      5-min Rain = 0
KCO1 261623Z 12010KT 27/20 A2994 RMK A01 T02740196  RH  062%=      5-min Rain = 0
KCO1 261624Z 12013KT 28/20 A2994 RMK A01 T02760195  RH  062%=      5-min Rain = 0
KCO1 261625Z 12013KT 28/20 A2994 RMK A01 T02760196  RH  062%=      5-min Rain = 0
KCO1 261626Z 12013KT 28/20 A2994 RMK A01 T02750196  RH  062%=      5-min Rain = 0
KCO1 261627Z 12016KT 28/20 A2994 RMK A01 T02750196  RH  062%=      5-min Rain = 0
KCO1 261628Z 12013KT 27/20 A2995 RMK A01 T02730196  RH  063%=      5-min Rain = 0
KCO1 261629Z 12013KT 27/20 A2995 RMK A01 T02720196  RH  063%=      5-min Rain = 0
KCO1 261630Z 11013KT 27/20 A2995 RMK A01 T02720196  RH  063%=      5-min Rain = 0
KCO1 261631Z 12011G16KT 27/20 A2995 RMK A01 T02720198  RH  064%=      5-min Rain = 0
KCO1 261632Z 12015KT 27/20 A2995 RMK A01 T02730197  RH  063%=      5-min Rain = 0
KCO1 261633Z 12016KT 27/20 A2995 RMK A01 T02720196  RH  063%=      5-min Rain = 0
KCO1 261634Z 12016KT 27/20 A2994 RMK A01 T02700195  RH  063%=      5-min Rain = 0
KCO1 261635Z 12013KT 27/20 A2994 RMK A01 T02700196  RH  064%=      5-min Rain = 0
KCO1 261636Z 11014KT 27/20 A2994 RMK A01 T02700197  RH  064%=      5-min Rain = 0
KCO1 261637Z 11017KT 27/20 A2994 RMK A01 T02700198  RH  065%=      5-min Rain = 0
KCO1 261638Z 11015KT 27/20 A2994 RMK A01 T02690198  RH  065%=      5-min Rain = 0
KCO1 261639Z 10014KT 27/20 A2994 RMK A01 T02680198  RH  065%=      5-min Rain = 0
KCO1 261640Z 11013KT 27/20 A2994 RMK A01 T02680198  RH  066%=      5-min Rain = 0
KCO1 261641Z 11014KT 27/20 A2994 RMK A01 T02680199  RH  066%=      5-min Rain = 0
KCO1 261642Z 10015KT 27/20 A2994 RMK A01 T02670198  RH  066%=      5-min Rain = 0
KCO1 261643Z 11014KT 27/20 A2994 RMK A01 T02660199  RH  066%=      5-min Rain = 0
KCO1 261644Z 11015KT 27/20 A2994 RMK A01 T02660198  RH  066%=      5-min Rain = 0
KCO1 261645Z 12015G21KT 27/20 A2994 RMK A01 T02660198  RH  066%=      5-min Rain = 0
KCO1 261646Z 12017KT 27/20 A2995 RMK A01 T02670198  RH  066%=      5-min Rain = 0
KCO1 261647Z 12017KT 27/20 A2995 RMK A01 T02670197  RH  065%=      5-min Rain = 0
KCO1 261648Z 12014KT 27/20 A2995 RMK A01 T02670197  RH  066%=      5-min Rain = 0
KCO1 261649Z 13014KT 27/20 A2995 RMK A01 T02670197  RH  066%=      5-min Rain = 0
KCO1 261650Z 12013KT 27/20 A2994 RMK A01 T02670198  RH  066%=      5-min Rain = 0
KCO1 261651Z 12011KT 27/20 A2995 RMK A01 T02690200  RH  066%=      5-min Rain = 0
KCO1 261652Z 13013KT 27/20 A2994 RMK A01 T02710199  RH  065%=      5-min Rain = 0
KCO1 261653Z 12015KT 27/20 A2994 RMK A01 T02710199  RH  065%=      5-min Rain = 0
KCO1 261654Z 12013KT 27/20 A2994 RMK A01 T02720199  RH  065%=      5-min Rain = 0
KCO1 261655Z 12016KT 27/20 A2994 RMK A01 T02720199  RH  065%=      5-min Rain = 0
KCO1 261656Z 12015KT 27/20 A2994 RMK A01 T02720200  RH  065%=      5-min Rain = 0
KCO1 261657Z 12017KT 27/20 A2994 RMK A01 T02720199  RH  064%=      5-min Rain = 0
KCO1 261658Z 12014KT 27/20 A2994 RMK A01 T02720199  RH  064%=      5-min Rain = 0
KCO1 261659Z 12012G17KT 27/20 A2994 RMK A01 T02730200  RH  064%=      5-min Rain = 0
KCO1 261700Z 12015KT 27/20 A2994 RMK A01 T02740201  RH  064%=      5-min Rain = 0
KCO1 261701Z 12017KT 28/20 A2994 RMK A01 T02750200  RH  064%=      5-min Rain = 0
KCO1 261702Z 12016KT 28/20 A2994 RMK A01 T02750200  RH  064%=      5-min Rain = 0
KCO1 261703Z 12012G19KT 28/20 A2994 RMK A01 T02750202  RH  064%=      5-min Rain = 0
KCO1 261704Z 12017KT 28/20 A2994 RMK A01 T02770201  RH  063%=      5-min Rain = 0
KCO1 261705Z 12013KT 28/20 A2994 RMK A01 T02780199  RH  062%=      5-min Rain = 0
KCO1 261706Z 11013KT 28/20 A2994 RMK A01 T02780201  RH  063%=      5-min Rain = 0
KCO1 261707Z 11012KT 28/20 A2994 RMK A01 T02800203  RH  063%=      5-min Rain = 0
KCO1 261708Z 11012KT 28/20 A2994 RMK A01 T02810203  RH  062%=      5-min Rain = 0
KCO1 261709Z 11015KT 28/20 A2994 RMK A01 T02820201  RH  062%=      5-min Rain = 0
KCO1 261710Z 11016KT 28/20 A2994 RMK A01 T02810200  RH  061%=      5-min Rain = 0
KCO1 261711Z 11015KT 28/20 A2994 RMK A01 T02790200  RH  062%=      5-min Rain = 0
KCO1 261712Z 12015G20KT 28/20 A2994 RMK A01 T02780200  RH  063%=      5-min Rain = 0
KCO1 261713Z 11016KT 28/20 A2994 RMK A01 T02770200  RH  063%=      5-min Rain = 0
KCO1 261714Z 11015KT 28/20 A2994 RMK A01 T02770200  RH  063%=      5-min Rain = 0
KCO1 261715Z 12013KT 28/20 A2994 RMK A01 T02770200  RH  063%=      5-min Rain = 0
KCO1 261716Z 11015KT 28/20 A2995 RMK A01 T02780200  RH  062%=      5-min Rain = 0
KCO1 261717Z 11015KT 28/20 A2995 RMK A01 T02780199  RH  062%=      5-min Rain = 0
KCO1 261718Z 11014KT 28/20 A2995 RMK A01 T02780199  RH  062%=      5-min Rain = 0
KCO1 261719Z 12010KT 28/20 A2995 RMK A01 T02780201  RH  063%=      5-min Rain = 0
KCO1 261720Z 11011KT 28/20 A2995 RMK A01 T02800202  RH  062%=      5-min Rain = 0
KCO1 261721Z 12013G18KT 28/20 A2994 RMK A01 T02830202  RH  062%=      5-min Rain = 0
KCO1 261722Z 12015KT 28/20 A2995 RMK A01 T02840201  RH  061%=      5-min Rain = 0
KCO1 261723Z 12016KT 28/20 A2995 RMK A01 T02820199  RH  061%=      5-min Rain = 0
KCO1 261724Z 12015KT 28/20 A2995 RMK A01 T02800199  RH  061%=      5-min Rain = 0
KCO1 261725Z 12014KT 28/20 A2995 RMK A01 T02800199  RH  061%=      5-min Rain = 0
KCO1 261726Z 12012KT 28/20 A2994 RMK A01 T02800201  RH  062%=      5-min Rain = 0
KCO1 261727Z 12014KT 28/20 A2994 RMK A01 T02810200  RH  061%=      5-min Rain = 0
KCO1 261728Z 12013KT 28/20 A2994 RMK A01 T02810199  RH  061%=      5-min Rain = 0
KCO1 261729Z 12014KT 28/20 A2994 RMK A01 T02800200  RH  061%=      5-min Rain = 0
KCO1 261730Z 11014KT 28/20 A2994 RMK A01 T02800201  RH  062%=      5-min Rain = 0
KCO1 261731Z 12013KT 28/20 A2994 RMK A01 T02810200  RH  062%=      5-min Rain = 0
KCO1 261732Z 13014KT 28/20 A2994 RMK A01 T02800200  RH  061%=      5-min Rain = 0
KCO1 261733Z 12010KT 28/20 A2994 RMK A01 T02800199  RH  061%=      5-min Rain = 0
KCO1 261734Z 12012KT 28/20 A2994 RMK A01 T02820202  RH  062%=      5-min Rain = 0
KCO1 261735Z 12012KT 28/20 A2994 RMK A01 T02840203  RH  061%=      5-min Rain = 0
KCO1 261736Z 12013KT 28/20 A2994 RMK A01 T02840202  RH  061%=      5-min Rain = 0
KCO1 261737Z 11013KT 28/20 A2995 RMK A01 T02840200  RH  060%=      5-min Rain = 0
KCO1 261738Z 11012KT 28/20 A2994 RMK A01 T02830200  RH  061%=      5-min Rain = 0
KCO1 261739Z 11015KT 28/20 A2994 RMK A01 T02820200  RH  061%=      5-min Rain = 0
KCO1 261740Z 10012KT 28/20 A2994 RMK A01 T02820199  RH  061%=      5-min Rain = 0
KCO1 261741Z 12013KT 28/20 A2994 RMK A01 T02820201  RH  062%=      5-min Rain = 0
KCO1 261742Z 12014KT 28/20 A2994 RMK A01 T02830201  RH  061%=      5-min Rain = 0
KCO1 261743Z 12011KT 28/20 A2994 RMK A01 T02830203  RH  062%=      5-min Rain = 0
KCO1 261744Z 12011KT 28/20 A2994 RMK A01 T02830202  RH  062%=      5-min Rain = 0
KCO1 261745Z 11012KT 28/20 A2994 RMK A01 T02830203  RH  062%=      5-min Rain = 0
KCO1 261746Z 10015KT 28/20 A2995 RMK A01 T02840200  RH  060%=      5-min Rain = 0
KCO1 261747Z 11014KT 28/20 A2995 RMK A01 T02840199  RH  060%=      5-min Rain = 0
KCO1 261748Z 11013KT 28/20 A2994 RMK A01 T02830199  RH  060%=      5-min Rain = 0
KCO1 261749Z 11013KT 28/20 A2994 RMK A01 T02830199  RH  060%=      5-min Rain = 0
KCO1 261750Z 12014KT 28/20 A2994 RMK A01 T02820198  RH  060%=      5-min Rain = 0
KCO1 261751Z 12011KT 28/20 A2994 RMK A01 T02820199  RH  061%=      5-min Rain = 0
KCO1 261752Z 11011KT 28/20 A2994 RMK A01 T02830201  RH  061%=      5-min Rain = 0
KCO1 261753Z 11012KT 28/20 A2994 RMK A01 T02840201  RH  061%=      5-min Rain = 0
KCO1 261754Z 10014KT 28/20 A2994 RMK A01 T02840201  RH  061%=      5-min Rain = 0
KCO1 261755Z 11013KT 28/20 A2994 RMK A01 T02830201  RH  061%=      5-min Rain = 0
KCO1 261756Z 11013KT 28/20 A2995 RMK A01 T02820201  RH  061%=      5-min Rain = 0
KCO1 261757Z 11013KT 28/20 A2994 RMK A01 T02810200  RH  061%=      5-min Rain = 0
KCO1 261758Z 11012G17KT 28/20 A2994 RMK A01 T02820201  RH  062%=      5-min Rain = 0
KCO1 261759Z 11014KT 28/20 A2994 RMK A01 T02830200  RH  061%=      5-min Rain = 0
KCO1 261800Z 11013KT 28/20 A2994 RMK A01 T02820200  RH  061%=      5-min Rain = 0
KCO1 261801Z 12015KT 28/20 A2994 RMK A01 T02810200  RH  061%=      5-min Rain = 0
KCO1 261802Z 11013KT 28/20 A2994 RMK A01 T02800200  RH  062%=      5-min Rain = 0
KCO1 261803Z 12012KT 28/20 A2994 RMK A01 T02800201  RH  062%=      5-min Rain = 0
KCO1 261804Z 12010KT 28/20 A2994 RMK A01 T02810201  RH  062%=      5-min Rain = 0
KCO1 261805Z 11010KT 28/20 A2994 RMK A01 T02810201  RH  062%=      5-min Rain = 0
KCO1 261806Z 12012KT 28/20 A2994 RMK A01 T02820201  RH  061%=      5-min Rain = 0
KCO1 261807Z 11014KT 28/20 A2994 RMK A01 T02820201  RH  061%=      5-min Rain = 0
KCO1 261808Z 11015KT 28/20 A2994 RMK A01 T02810201  RH  062%=      5-min Rain = 0
KCO1 261809Z 11013KT 28/20 A2994 RMK A01 T02810201  RH  062%=      5-min Rain = 0
KCO1 261810Z 11012KT 28/20 A2994 RMK A01 T02800202  RH  062%=      5-min Rain = 0
KCO1 261811Z 11011KT 28/20 A2994 RMK A01 T02800203  RH  063%=      5-min Rain = 0
KCO1 261812Z 12011KT 28/20 A2994 RMK A01 T02820202  RH  062%=      5-min Rain = 0
KCO1 261813Z 12013KT 28/20 A2994 RMK A01 T02820200  RH  061%=      5-min Rain = 0
KCO1 261814Z 11014KT 28/20 A2994 RMK A01 T02820200  RH  061%=      5-min Rain = 0
KCO1 261815Z 11013KT 28/20 A2994 RMK A01 T02810200  RH  061%=      5-min Rain = 0
KCO1 261816Z 11011KT 28/20 A2994 RMK A01 T02810202  RH  062%=      5-min Rain = 0
KCO1 261817Z 10013KT 28/20 A2994 RMK A01 T02820203  RH  062%=      5-min Rain = 0
KCO1 261818Z 10014KT 28/20 A2994 RMK A01 T02820204  RH  063%=      5-min Rain = 0
KCO1 261819Z 10014KT 28/20 A2994 RMK A01 T02800204  RH  063%=      5-min Rain = 0
KCO1 261820Z 10013KT 28/20 A2994 RMK A01 T02800204  RH  063%=      5-min Rain = 0
KCO1 261821Z 10012KT 28/20 A2994 RMK A01 T02790203  RH  063%=      5-min Rain = 0
KCO1 261822Z 10014KT 28/20 A2994 RMK A01 T02800203  RH  063%=      5-min Rain = 0
KCO1 261823Z 10016KT 28/20 A2994 RMK A01 T02810204  RH  063%=      5-min Rain = 0
KCO1 261824Z 11014KT 28/20 A2994 RMK A01 T02810203  RH  063%=      5-min Rain = 0
KCO1 261825Z 10014KT 28/20 A2994 RMK A01 T02820204  RH  063%=      5-min Rain = 0
KCO1 261826Z 11015KT 28/20 A2994 RMK A01 T02820204  RH  062%=      5-min Rain = 0
KCO1 261827Z 10013KT 28/20 A2994 RMK A01 T02820204  RH  063%=      5-min Rain = 0
KCO1 261828Z 10013KT 28/20 A2994 RMK A01 T02810204  RH  063%=      5-min Rain = 0
KCO1 261829Z 10015KT 28/20 A2994 RMK A01 T02820203  RH  062%=      5-min Rain = 0
KCO1 261830Z 10013KT 28/20 A2994 RMK A01 T02820203  RH  062%=      5-min Rain = 0
KCO1 261831Z 11013KT 28/20 A2994 RMK A01 T02820204  RH  063%=      5-min Rain = 0
KCO1 261832Z 10011KT 28/20 A2994 RMK A01 T02820204  RH  063%=      5-min Rain = 0
KCO1 261833Z 10013KT 28/20 A2994 RMK A01 T02820204  RH  062%=      5-min Rain = 0
KCO1 261834Z 11015KT 28/20 A2994 RMK A01 T02830204  RH  062%=      5-min Rain = 0
KCO1 261835Z 10014KT 28/20 A2994 RMK A01 T02830204  RH  062%=      5-min Rain = 0
KCO1 261836Z 11015KT 28/20 A2994 RMK A01 T02830202  RH  062%=      5-min Rain = 0
KCO1 261837Z 11014KT 28/20 A2994 RMK A01 T02830202  RH  061%=      5-min Rain = 0
KCO1 261838Z 10012KT 28/20 A2994 RMK A01 T02830203  RH  062%=      5-min Rain = 0
KCO1 261839Z 10011KT 28/20 A2994 RMK A01 T02830203  RH  062%=      5-min Rain = 0
KCO1 261840Z 11011G16KT 28/20 A2994 RMK A01 T02840203  RH  062%=      5-min Rain = 0
KCO1 261841Z 10013KT 29/20 A2994 RMK A01 T02850202  RH  061%=      5-min Rain = 0
KCO1 261842Z 10014KT 28/20 A2994 RMK A01 T02840200  RH  060%=      5-min Rain = 0
KCO1 261843Z 10012KT 28/20 A2994 RMK A01 T02830201  RH  061%=      5-min Rain = 0
KCO1 261844Z 10014KT 28/20 A2994 RMK A01 T02830201  RH  061%=      5-min Rain = 0
KCO1 261845Z 11013KT 28/20 A2994 RMK A01 T02830201  RH  061%=      5-min Rain = 0
KCO1 261846Z 10013KT 28/20 A2994 RMK A01 T02830200  RH  061%=      5-min Rain = 0
KCO1 261847Z 11012KT 28/20 A2994 RMK A01 T02840200  RH  061%=      5-min Rain = 0
KCO1 261848Z 12016KT 28/20 A2994 RMK A01 T02830200  RH  061%=      5-min Rain = 0
KCO1 261849Z 11014KT 28/20 A2994 RMK A01 T02830200  RH  061%=      5-min Rain = 0
KCO1 261850Z 11014KT 28/20 A2994 RMK A01 T02820200  RH  061%=      5-min Rain = 0
KCO1 261851Z 11013G18KT 28/20 A2994 RMK A01 T02810200  RH  061%=      5-min Rain = 0
KCO1 261852Z 12011KT 28/20 A2994 RMK A01 T02810202  RH  062%=      5-min Rain = 0
KCO1 261853Z 11009KT 28/20 A2994 RMK A01 T02820201  RH  062%=      5-min Rain = 0
KCO1 261854Z 11011KT 28/20 A2994 RMK A01 T02830203  RH  062%=      5-min Rain = 0
KCO1 261855Z 11010KT 28/20 A2994 RMK A01 T02830202  RH  061%=      5-min Rain = 0
KCO1 261856Z 11013KT 28/20 A2994 RMK A01 T02840201  RH  061%=      5-min Rain = 0
KCO1 261857Z 11012KT 28/20 A2994 RMK A01 T02840200  RH  060%=      5-min Rain = 0
KCO1 261858Z 10012KT 28/20 A2994 RMK A01 T02830200  RH  061%=      5-min Rain = 0
KCO1 261859Z 10010KT 28/20 A2994 RMK A01 T02820199  RH  061%=      5-min Rain = 0
KCO1 261900Z 10014KT 28/20 A2994 RMK A01 T02820200  RH  061%=      5-min Rain = 0
KCO1 261901Z 10012KT 28/20 A2994 RMK A01 T02820200  RH  061%=      5-min Rain = 0
KCO1 261902Z 11010KT 28/20 A2994 RMK A01 T02820202  RH  062%=      5-min Rain = 0
KCO1 261903Z 11009KT 28/20 A2994 RMK A01 T02830202  RH  062%=      5-min Rain = 0
KCO1 261904Z 10010KT 28/20 A2994 RMK A01 T02830203  RH  062%=      5-min Rain = 0
KCO1 261905Z 10013KT 28/20 A2994 RMK A01 T02840202  RH  061%=      5-min Rain = 0
KCO1 261906Z 10013KT 28/20 A2994 RMK A01 T02830202  RH  061%=      5-min Rain = 0
KCO1 261907Z 11012KT 28/20 A2994 RMK A01 T02820202  RH  062%=      5-min Rain = 0
KCO1 261908Z 10012KT 28/20 A2994 RMK A01 T02810202  RH  062%=      5-min Rain = 0
KCO1 261909Z 10012KT 28/20 A2994 RMK A01 T02810203  RH  062%=      5-min Rain = 0
KCO1 261910Z 10012KT 28/20 A2994 RMK A01 T02810202  RH  062%=      5-min Rain = 0
KCO1 261911Z 11012KT 28/20 A2994 RMK A01 T02800202  RH  063%=      5-min Rain = 0
KCO1 261912Z 10011KT 28/20 A2994 RMK A01 T02800203  RH  063%=      5-min Rain = 0
KCO1 261913Z 11011KT 28/20 A2994 RMK A01 T02800203  RH  063%=      5-min Rain = 0
KCO1 261914Z 11010KT 28/20 A2995 RMK A01 T02800203  RH  063%=      5-min Rain = 0
KCO1 261915Z 12010G17KT 28/20 A2995 RMK A01 T02800204  RH  063%=      5-min Rain = 0
KCO1 261916Z 12012KT 28/20 A2995 RMK A01 T02810203  RH  063%=      5-min Rain = 0
KCO1 261917Z 11013KT 28/20 A2995 RMK A01 T02810203  RH  063%=      5-min Rain = 0
KCO1 261918Z 11010KT 28/20 A2995 RMK A01 T02810203  RH  062%=      5-min Rain = 0
KCO1 261919Z 11012KT 28/20 A2995 RMK A01 T02820203  RH  062%=      5-min Rain = 0
KCO1 261920Z 10011KT 28/20 A2994 RMK A01 T02820204  RH  062%=      5-min Rain = 0
KCO1 261921Z 10010KT 28/20 A2994 RMK A01 T02830204  RH  062%=      5-min Rain = 0
KCO1 261922Z 10012KT 28/20 A2994 RMK A01 T02830204  RH  062%=      5-min Rain = 0
KCO1 261923Z 11014KT 28/20 A2994 RMK A01 T02830204  RH  062%=      5-min Rain = 0
KCO1 261924Z 11013KT 28/20 A2994 RMK A01 T02830204  RH  062%=      5-min Rain = 0
KCO1 261925Z 10012KT 28/21 A2994 RMK A01 T02830205  RH  062%=      5-min Rain = 0
KCO1 261926Z 12011KT 28/21 A2994 RMK A01 T02830205  RH  063%=      5-min Rain = 0
KCO1 261927Z 12011KT 28/21 A2995 RMK A01 T02840205  RH  063%=      5-min Rain = 0
KCO1 261928Z 12008G14KT 28/21 A2995 RMK A01 T02840206  RH  063%=      5-min Rain = 0
KCO1 261929Z 12012KT 29/21 A2995 RMK A01 T02850206  RH  062%=      5-min Rain = 0
KCO1 261930Z 12011KT 29/21 A2995 RMK A01 T02860206  RH  062%=      5-min Rain = 0
KCO1 261931Z 11013KT 29/21 A2995 RMK A01 T02860206  RH  062%=      5-min Rain = 0
KCO1 261932Z 11012KT 29/21 A2995 RMK A01 T02860206  RH  062%=      5-min Rain = 0
KCO1 261933Z 11014KT 29/21 A2994 RMK A01 T02860206  RH  062%=      5-min Rain = 0
KCO1 261934Z 11014KT 29/21 A2994 RMK A01 T02860205  RH  062%=      5-min Rain = 0
KCO1 261935Z 11013KT 29/21 A2994 RMK A01 T02850206  RH  062%=      5-min Rain = 0
KCO1 261936Z 12014KT 29/21 A2994 RMK A01 T02850206  RH  062%=      5-min Rain = 0
KCO1 261937Z 11016KT 29/21 A2994 RMK A01 T02860205  RH  062%=      5-min Rain = 0
KCO1 261938Z 11017KT 29/21 A2994 RMK A01 T02870206  RH  062%=      5-min Rain = 0
KCO1 261939Z 11016KT 29/21 A2993 RMK A01 T02870206  RH  062%=      5-min Rain = 0
KCO1 261940Z 12018KT 29/21 A2993 RMK A01 T02880205  RH  061%=      5-min Rain = 0
KCO1 261941Z 11018KT 29/21 A2993 RMK A01 T02880206  RH  061%=      5-min Rain = 0
KCO1 261942Z 11018KT 29/21 A2993 RMK A01 T02880205  RH  061%=      5-min Rain = 0
KCO1 261943Z 11017KT 29/21 A2993 RMK A01 T02880206  RH  061%=      5-min Rain = 0
KCO1 261944Z 12017KT 29/21 A2993 RMK A01 T02880205  RH  061%=      5-min Rain = 0
KCO1 261945Z 11016KT 29/21 A2993 RMK A01 T02880206  RH  061%=      5-min Rain = 0
KCO1 261946Z 12018KT 29/21 A2993 RMK A01 T02880205  RH  061%=      5-min Rain = 0
KCO1 261947Z 12018KT 29/20 A2993 RMK A01 T02880204  RH  061%=      5-min Rain = 0
KCO1 261948Z 12015KT 29/20 A2993 RMK A01 T02870204  RH  061%=      5-min Rain = 0
KCO1 261949Z 12014G19KT 29/20 A2993 RMK A01 T02880204  RH  061%=      5-min Rain = 0
KCO1 261950Z 12016KT 29/20 A2992 RMK A01 T02880204  RH  060%=      5-min Rain = 0
KCO1 261951Z 12018KT 29/20 A2992 RMK A01 T02890204  RH  060%=      5-min Rain = 0
KCO1 261952Z 12015KT 29/20 A2992 RMK A01 T02900203  RH  060%=      5-min Rain = 0
KCO1 261953Z 12013KT 29/20 A2992 RMK A01 T02900204  RH  060%=      5-min Rain = 0
KCO1 261954Z 11014KT 29/20 A2992 RMK A01 T02910204  RH  060%=      5-min Rain = 0
KCO1 261955Z 13016KT 29/20 A2992 RMK A01 T02920204  RH  059%=      5-min Rain = 0
KCO1 261956Z 12015KT 29/20 A2992 RMK A01 T02920203  RH  059%=      5-min Rain = 0
KCO1 261957Z 12017KT 29/20 A2992 RMK A01 T02920204  RH  059%=      5-min Rain = 0
KCO1 261958Z 12016KT 29/20 A2992 RMK A01 T02920204  RH  059%=      5-min Rain = 0
KCO1 261959Z 12017KT 29/20 A2992 RMK A01 T02920204  RH  059%=      5-min Rain = 0
KCO1 262000Z 12014KT 29/20 A2992 RMK A01 T02910203  RH  059%=      5-min Rain = 0
KCO1 262001Z 12012KT 29/21 A2992 RMK A01 T02910205  RH  060%=      5-min Rain = 0
KCO1 262002Z 12015KT 29/20 A2992 RMK A01 T02930204  RH  059%=      5-min Rain = 0
KCO1 262003Z 12015KT 29/20 A2992 RMK A01 T02930204  RH  059%=      5-min Rain = 0
KCO1 262004Z 12019KT 29/20 A2991 RMK A01 T02930203  RH  058%=      5-min Rain = 0
KCO1 262005Z 11018KT 29/20 A2991 RMK A01 T02930203  RH  059%=      5-min Rain = 0
KCO1 262006Z 11017KT 29/20 A2991 RMK A01 T02920202  RH  058%=      5-min Rain = 0
KCO1 262007Z 11019KT 29/20 A2991 RMK A01 T02910203  RH  059%=      5-min Rain = 0
KCO1 262008Z 11016G22KT 29/20 A299 RMK A01 T02910203  RH  059%=      5-min Rain = 0
KCO1 262009Z 11017KT 29/20 A299 RMK A01 T02910202  RH  059%=      5-min Rain = 0
KCO1 262010Z 10017KT 29/20 A299 RMK A01 T02910202  RH  059%=      5-min Rain = 0
KCO1 262011Z 11017KT 29/20 A299 RMK A01 T02910202  RH  059%=      5-min Rain = 0
KCO1 262012Z 11013KT 29/20 A299 RMK A01 T02910204  RH  059%=      5-min Rain = 0
KCO1 262013Z 11018KT 29/20 A299 RMK A01 T02930204  RH  059%=      5-min Rain = 0
KCO1 262014Z 11013KT 29/20 A299 RMK A01 T02920203  RH  058%=      5-min Rain = 0
KCO1 262015Z 11015KT 29/20 A299 RMK A01 T02920204  RH  059%=      5-min Rain = 0
KCO1 262016Z 10015KT 29/20 A299 RMK A01 T02920204  RH  059%=      5-min Rain = 0
KCO1 262017Z 10014KT 29/20 A299 RMK A01 T02910202  RH  059%=      5-min Rain = 0
KCO1 262018Z 10015KT 29/20 A299 RMK A01 T02900203  RH  059%=      5-min Rain = 0
KCO1 262019Z 10013KT 29/20 A299 RMK A01 T02900203  RH  060%=      5-min Rain = 0
KCO1 262020Z 10012G17KT 29/20 A299 RMK A01 T02890204  RH  060%=      5-min Rain = 0
KCO1 262021Z 10014KT 29/20 A299 RMK A01 T02890203  RH  060%=      5-min Rain = 0
KCO1 262022Z 11013KT 29/20 A299 RMK A01 T02880204  RH  061%=      5-min Rain = 0
KCO1 262023Z 10014KT 29/21 A299 RMK A01 T02870205  RH  061%=      5-min Rain = 0
KCO1 262024Z 10015KT 29/20 A299 RMK A01 T02870203  RH  061%=      5-min Rain = 0
KCO1 262025Z 10014KT 29/20 A299 RMK A01 T02860203  RH  061%=      5-min Rain = 0
KCO1 262026Z 10012KT 29/20 A299 RMK A01 T02860204  RH  061%=      5-min Rain = 0
KCO1 262027Z 10014KT 29/21 A299 RMK A01 T02870205  RH  061%=      5-min Rain = 0
KCO1 262028Z 10014KT 29/20 A299 RMK A01 T02880204  RH  061%=      5-min Rain = 0
KCO1 262029Z 10017G22KT 29/20 A299 RMK A01 T02880204  RH  060%=      5-min Rain = 0
KCO1 262030Z 10017KT 29/20 A299 RMK A01 T02880204  RH  060%=      5-min Rain = 0
KCO1 262031Z 11014KT 29/21 A299 RMK A01 T02880205  RH  061%=      5-min Rain = 0
KCO1 262032Z 11015KT 29/21 A299 RMK A01 T02880205  RH  061%=      5-min Rain = 0
KCO1 262033Z 11014KT 29/20 A299 RMK A01 T02890204  RH  060%=      5-min Rain = 0
KCO1 262034Z 11015KT 29/20 A299 RMK A01 T02890204  RH  060%=      5-min Rain = 0
KCO1 262035Z 11014KT 29/20 A299 RMK A01 T02890203  RH  060%=      5-min Rain = 0
KCO1 262036Z 11014KT 29/20 A299 RMK A01 T02890204  RH  060%=      5-min Rain = 0
KCO1 262037Z 11014G19KT 29/20 A299 RMK A01 T02890204  RH  060%=      5-min Rain = 0
KCO1 262038Z 11016KT 29/20 A2989 RMK A01 T02890203  RH  060%=      5-min Rain = 0
KCO1 262039Z 11013G21KT 29/20 A2989 RMK A01 T02890204  RH  060%=      5-min Rain = 0
KCO1 262040Z 12019KT 29/20 A2989 RMK A01 T02880203  RH  060%=      5-min Rain = 0
KCO1 262041Z 11019KT 29/20 A2989 RMK A01 T02870202  RH  060%=      5-min Rain = 0
KCO1 262042Z 11020KT 29/20 A2989 RMK A01 T02860202  RH  060%=      5-min Rain = 0
KCO1 262043Z 11019KT 29/20 A2989 RMK A01 T02850203  RH  061%=      5-min Rain = 0
KCO1 262044Z 11016G21KT 29/20 A2989 RMK A01 T02850203  RH  061%=      5-min Rain = 0
KCO1 262045Z 11019KT 29/20 A2989 RMK A01 T02850203  RH  061%=      5-min Rain = 0
KCO1 262046Z 11016KT 29/20 A2989 RMK A01 T02860203  RH  061%=      5-min Rain = 0
KCO1 262047Z 11018KT 29/20 A2989 RMK A01 T02860203  RH  061%=      5-min Rain = 0
KCO1 262048Z 11020KT 29/20 A2989 RMK A01 T02860201  RH  060%=      5-min Rain = 0
KCO1 262049Z 11019KT 29/20 A2989 RMK A01 T02850201  RH  060%=      5-min Rain = 0
KCO1 262050Z 11021KT 28/20 A2989 RMK A01 T02840201  RH  061%=      5-min Rain = 0
KCO1 262051Z 11020G25KT 28/20 A2989 RMK A01 T02830202  RH  061%=      5-min Rain = 0
KCO1 262052Z 10018KT 28/20 A2989 RMK A01 T02830203  RH  062%=      5-min Rain = 0
KCO1 262053Z 11016G21KT 28/20 A2989 RMK A01 T02830203  RH  062%=      5-min Rain = 0
KCO1 262054Z 11019KT 28/20 A2989 RMK A01 T02830202  RH  062%=      5-min Rain = 0
KCO1 262055Z 12019G24KT 28/20 A2988 RMK A01 T02830202  RH  061%=      5-min Rain = 0
KCO1 262056Z 12022KT 28/20 A2988 RMK A01 T02830202  RH  061%=      5-min Rain = 0
KCO1 262057Z 12020KT 28/20 A2988 RMK A01 T02820202  RH  062%=      5-min Rain = 0
KCO1 262058Z 12019KT 28/20 A2988 RMK A01 T02820202  RH  062%=      5-min Rain = 0
KCO1 262059Z 12017G22KT 28/20 A2988 RMK A01 T02820202  RH  062%=      5-min Rain = 0
KCO1 262100Z 12019G25KT 28/20 A2988 RMK A01 T02830202  RH  062%=      5-min Rain = 0
KCO1 262101Z 12022G27KT 28/20 A2988 RMK A01 T02830201  RH  061%=      5-min Rain = 0
KCO1 262102Z 12021G26KT 28/20 A2988 RMK A01 T02830202  RH  061%=      5-min Rain = 0
KCO1 262103Z 12017G24KT 28/20 A2988 RMK A01 T02830202  RH  061%=      5-min Rain = 0
KCO1 262104Z 12021KT 28/20 A2988 RMK A01 T02830202  RH  061%=      5-min Rain = 0
KCO1 262105Z 13019KT 28/20 A2988 RMK A01 T02840202  RH  061%=      5-min Rain = 0
KCO1 262106Z 12016G21KT 28/20 A2988 RMK A01 T02840203  RH  061%=      5-min Rain = 0
KCO1 262107Z 11019KT 28/20 A2988 RMK A01 T02840203  RH  062%=      5-min Rain = 0
KCO1 262108Z 12018G23KT 28/20 A2988 RMK A01 T02840203  RH  061%=      5-min Rain = 0
KCO1 262109Z 12015KT 28/20 A2988 RMK A01 T02840203  RH  062%=      5-min Rain = 0
KCO1 262110Z 12018KT 29/20 A2988 RMK A01 T02850204  RH  061%=      5-min Rain = 0
KCO1 262111Z 13015G20KT 29/20 A2988 RMK A01 T02850203  RH  061%=      5-min Rain = 0
KCO1 262112Z 13016KT 29/20 A2988 RMK A01 T02860203  RH  061%=      5-min Rain = 0
KCO1 262113Z 12018G25KT 29/20 A2988 RMK A01 T02860204  RH  061%=      5-min Rain = 0
KCO1 262114Z 12015G20KT 29/20 A2988 RMK A01 T02860203  RH  061%=      5-min Rain = 0
KCO1 262115Z 12016KT 29/20 A2988 RMK A01 T02860203  RH  061%=      5-min Rain = 0
KCO1 262116Z 12017G22KT 29/20 A2988 RMK A01 T02860203  RH  061%=      5-min Rain = 0
KCO1 262117Z 12017KT 29/20 A2988 RMK A01 T02870203  RH  060%=      5-min Rain = 0
KCO1 262118Z 12017G24KT 29/20 A2988 RMK A01 T02870203  RH  061%=      5-min Rain = 0
KCO1 262119Z 12020G25KT 29/20 A2987 RMK A01 T02870202  RH  060%=      5-min Rain = 0
KCO1 262120Z 13022KT 29/20 A2987 RMK A01 T02870202  RH  060%=      5-min Rain = 0
KCO1 262121Z 12019KT 29/20 A2987 RMK A01 T02860202  RH  060%=      5-min Rain = 0
KCO1 262122Z 12013G18KT 29/20 A2987 RMK A01 T02860203  RH  061%=      5-min Rain = 0
KCO1 262123Z 12018KT 29/20 A2987 RMK A01 T02880203  RH  060%=      5-min Rain = 0
KCO1 262124Z 12020KT 29/20 A2986 RMK A01 T02880203  RH  060%=      5-min Rain = 0
KCO1 262125Z 12018KT 29/20 A2987 RMK A01 T02860203  RH  061%=      5-min Rain = 0
KCO1 262126Z 12015KT 29/20 A2987 RMK A01 T02860203  RH  061%=      5-min Rain = 0
KCO1 262127Z 12014KT 29/20 A2987 RMK A01 T02860204  RH  061%=      5-min Rain = 0
KCO1 262128Z 12016KT 29/20 A2987 RMK A01 T02870204  RH  061%=      5-min Rain = 0
KCO1 262129Z 12016KT 29/20 A2987 RMK A01 T02880204  RH  060%=      5-min Rain = 0
KCO1 262130Z 12019KT 29/20 A2987 RMK A01 T02880204  RH  060%=      5-min Rain = 0
KCO1 262131Z 12020KT 29/20 A2987 RMK A01 T02870203  RH  060%=      5-min Rain = 0
KCO1 262132Z 12021KT 29/20 A2987 RMK A01 T02860202  RH  060%=      5-min Rain = 0
KCO1 262133Z 12017KT 29/20 A2986 RMK A01 T02860203  RH  061%=      5-min Rain = 0
KCO1 262134Z 12018G23KT 29/20 A2986 RMK A01 T02860203  RH  061%=      5-min Rain = 0
KCO1 262135Z 12020G25KT 29/20 A2986 RMK A01 T02860202  RH  060%=      5-min Rain = 0
KCO1 262136Z 12021G27KT 29/20 A2986 RMK A01 T02870202  RH  060%=      5-min Rain = 0
KCO1 262137Z 12021KT 29/20 A2986 RMK A01 T02870202  RH  060%=      5-min Rain = 0
KCO1 262138Z 12021KT 29/20 A2986 RMK A01 T02870202  RH  060%=      5-min Rain = 0
KCO1 262139Z 12022G27KT 29/20 A2986 RMK A01 T02870203  RH  060%=      5-min Rain = 0
KCO1 262140Z 13021KT 29/20 A2985 RMK A01 T02870202  RH  060%=      5-min Rain = 0
KCO1 262141Z 12023G28KT 29/20 A2985 RMK A01 T02870202  RH  060%=      5-min Rain = 0
KCO1 262142Z 12019KT 29/20 A2985 RMK A01 T02870202  RH  060%=      5-min Rain = 0
KCO1 262143Z 12020G25KT 29/20 A2985 RMK A01 T02880203  RH  060%=      5-min Rain = 0
KCO1 262144Z 12022G27KT 29/20 A2985 RMK A01 T02880202  RH  060%=      5-min Rain = 0
KCO1 262145Z 12020KT 29/20 A2985 RMK A01 T02880202  RH  060%=      5-min Rain = 0
KCO1 262146Z 13020G26KT 29/20 A2985 RMK A01 T02890202  RH  060%=      5-min Rain = 0
KCO1 262147Z 12021G26KT 29/20 A2985 RMK A01 T02890200  RH  059%=      5-min Rain = 0
KCO1 262148Z 12019G25KT 29/20 A2985 RMK A01 T02890201  RH  059%=      5-min Rain = 0
KCO1 262149Z 12023G28KT 29/20 A2985 RMK A01 T02890201  RH  059%=      5-min Rain = 0
KCO1 262150Z 13022G29KT 29/20 A2985 RMK A01 T02890200  RH  059%=      5-min Rain = 0
KCO1 262151Z 13022KT 29/20 A2985 RMK A01 T02880200  RH  059%=      5-min Rain = 0
KCO1 262152Z 13020KT 29/20 A2985 RMK A01 T02880200  RH  059%=      5-min Rain = 0
KCO1 262153Z 12020G26KT 29/20 A2985 RMK A01 T02880199  RH  059%=      5-min Rain = 0
KCO1 262154Z 13023KT 29/20 A2985 RMK A01 T02890198  RH  058%=      5-min Rain = 0
KCO1 262155Z 12019G24KT 29/20 A2985 RMK A01 T02890198  RH  058%=      5-min Rain = 0
KCO1 262156Z 12018KT 29/20 A2985 RMK A01 T02890198  RH  058%=      5-min Rain = 0
KCO1 262157Z 12018KT 29/20 A2985 RMK A01 T02890199  RH  058%=      5-min Rain = 0
KCO1 262158Z 12017G23KT 29/20 A2985 RMK A01 T02900199  RH  058%=      5-min Rain = 0
KCO1 262159Z 12019G26KT 29/20 A2985 RMK A01 T02910199  RH  058%=      5-min Rain = 0
KCO1 262200Z 12020G25KT 29/20 A2985 RMK A01 T02910199  RH  058%=      5-min Rain = 0
KCO1 262201Z 12020G25KT 29/20 A2985 RMK A01 T02910199  RH  057%=      5-min Rain = 0
KCO1 262202Z 12020KT 29/20 A2985 RMK A01 T02910199  RH  058%=      5-min Rain = 0
KCO1 262203Z 12018G23KT 29/20 A2985 RMK A01 T02900199  RH  058%=      5-min Rain = 0
KCO1 262204Z 12019G24KT 29/20 A2985 RMK A01 T02900199  RH  058%=      5-min Rain = 0
KCO1 262205Z 12018KT 29/20 A2985 RMK A01 T02910199  RH  058%=      5-min Rain = 0
KCO1 262206Z 12017KT 29/20 A2985 RMK A01 T02900199  RH  058%=      5-min Rain = 0
KCO1 262207Z 12016G22KT 29/20 A2985 RMK A01 T02910200  RH  058%=      5-min Rain = 0
KCO1 262208Z 12017KT 29/20 A2984 RMK A01 T02920200  RH  058%=      5-min Rain = 0
KCO1 262209Z 12015G20KT 29/20 A2984 RMK A01 T02920201  RH  058%=      5-min Rain = 0
KCO1 262210Z 12016KT 29/20 A2984 RMK A01 T02930200  RH  057%=      5-min Rain = 0
KCO1 262211Z 12017G22KT 29/20 A2985 RMK A01 T02940200  RH  057%=      5-min Rain = 0
KCO1 262212Z 12017G23KT 29/20 A2984 RMK A01 T02940199  RH  057%=      5-min Rain = 0
KCO1 262213Z 12020KT 29/20 A2984 RMK A01 T02940199  RH  057%=      5-min Rain = 0
KCO1 262214Z 12019KT 29/20 A2985 RMK A01 T02930200  RH  057%=      5-min Rain = 0
KCO1 262215Z 12020G25KT 29/20 A2985 RMK A01 T02930200  RH  057%=      5-min Rain = 0
KCO1 262216Z 12018KT 29/20 A2985 RMK A01 T02920198  RH  057%=      5-min Rain = 0
KCO1 262217Z 11019KT 29/20 A2985 RMK A01 T02920198  RH  057%=      5-min Rain = 0
KCO1 262218Z 12017G22KT 29/20 A2985 RMK A01 T02920199  RH  057%=      5-min Rain = 0
KCO1 262219Z 13022KT 29/20 A2984 RMK A01 T02930198  RH  057%=      5-min Rain = 0
KCO1 262220Z 12019KT 29/20 A2985 RMK A01 T02930198  RH  057%=      5-min Rain = 0
KCO1 262221Z 12020KT 29/20 A2985 RMK A01 T02930199  RH  057%=      5-min Rain = 0
KCO1 262222Z 12018KT 29/20 A2985 RMK A01 T02920199  RH  057%=      5-min Rain = 0
KCO1 262223Z 12016KT 29/20 A2985 RMK A01 T02930199  RH  057%=      5-min Rain = 0
KCO1 262224Z 11018KT 29/20 A2985 RMK A01 T02930198  RH  057%=      5-min Rain = 0
KCO1 262225Z 11017KT 29/20 A2985 RMK A01 T02930198  RH  057%=      5-min Rain = 0
KCO1 262226Z 12015KT 29/20 A2985 RMK A01 T02930198  RH  057%=      5-min Rain = 0
KCO1 262227Z 12013G18KT 29/20 A2985 RMK A01 T02940199  RH  057%=      5-min Rain = 0
KCO1 262228Z 12015G20KT 30/20 A2985 RMK A01 T02960200  RH  056%=      5-min Rain = 0
KCO1 262229Z 12016G21KT 30/20 A2985 RMK A01 T02970199  RH  056%=      5-min Rain = 0
KCO1 262230Z 11016G22KT 30/20 A2985 RMK A01 T02970199  RH  056%=      5-min Rain = 0
KCO1 262231Z 12017G22KT 30/20 A2985 RMK A01 T02970198  RH  056%=      5-min Rain = 0
KCO1 262232Z 12015KT 30/20 A2985 RMK A01 T02960199  RH  056%=      5-min Rain = 0
KCO1 262233Z 11017KT 30/20 A2985 RMK A01 T02970199  RH  056%=      5-min Rain = 0
KCO1 262234Z 11018KT 30/20 A2985 RMK A01 T02980198  RH  055%=      5-min Rain = 0
KCO1 262235Z 12019KT 30/20 A2984 RMK A01 T02980197  RH  055%=      5-min Rain = 0
KCO1 262236Z 12018KT 30/20 A2984 RMK A01 T02980198  RH  055%=      5-min Rain = 0
KCO1 262237Z 12018KT 30/20 A2984 RMK A01 T02990198  RH  055%=      5-min Rain = 0
KCO1 262238Z 13015KT 30/20 A2984 RMK A01 T02990198  RH  055%=      5-min Rain = 0
KCO1 262239Z 13017KT 30/20 A2984 RMK A01 T02990199  RH  055%=      5-min Rain = 0
KCO1 262240Z 13017G22KT 30/20 A2984 RMK A01 T02990198  RH  055%=      5-min Rain = 0
KCO1 262241Z 12017G23KT 30/20 A2984 RMK A01 T02990198  RH  055%=      5-min Rain = 0
KCO1 262242Z 13018G23KT 30/20 A2984 RMK A01 T03000198  RH  054%=      5-min Rain = 0
KCO1 262243Z 13020KT 30/20 A2984 RMK A01 T02990197  RH  054%=      5-min Rain = 0
KCO1 262244Z 13018G23KT 30/20 A2984 RMK A01 T02990196  RH  054%=      5-min Rain = 0
KCO1 262245Z 13019KT 30/20 A2984 RMK A01 T02990196  RH  054%=      5-min Rain = 0
KCO1 262246Z 13018KT 30/20 A2984 RMK A01 T02990196  RH  054%=      5-min Rain = 0
KCO1 262247Z 13015G20KT 30/20 A2984 RMK A01 T02990196  RH  054%=      5-min Rain = 0
KCO1 262248Z 12017KT 30/20 A2984 RMK A01 T03010196  RH  053%=      5-min Rain = 0
KCO1 262249Z 12021G26KT 30/20 A2984 RMK A01 T03010195  RH  053%=      5-min Rain = 0
KCO1 262250Z 13018G24KT 30/20 A2984 RMK A01 T03000195  RH  053%=      5-min Rain = 0
KCO1 262251Z 13022KT 30/20 A2984 RMK A01 T03000195  RH  053%=      5-min Rain = 0
KCO1 262252Z 12020KT 30/20 A2984 RMK A01 T02980195  RH  054%=      5-min Rain = 0
KCO1 262253Z 13020KT 30/19 A2984 RMK A01 T02960194  RH  054%=      5-min Rain = 0
KCO1 262254Z 13018KT 30/19 A2984 RMK A01 T02960194  RH  054%=      5-min Rain = 0
KCO1 262255Z 12020KT 30/19 A2984 RMK A01 T02960194  RH  054%=      5-min Rain = 0
KCO1 262256Z 13019KT 30/19 A2984 RMK A01 T02960194  RH  054%=      5-min Rain = 0
KCO1 262257Z 12019KT 30/19 A2984 RMK A01 T02960194  RH  054%=      5-min Rain = 0
KCO1 262258Z 12018KT 30/19 A2984 RMK A01 T02960193  RH  054%=      5-min Rain = 0
KCO1 262259Z 12020KT 30/19 A2984 RMK A01 T02950193  RH  054%=      5-min Rain = 0
KCO1 262300Z 12016G21KT 30/19 A2984 RMK A01 T02950194  RH  055%=      5-min Rain = 0
KCO1 262301Z 12017G22KT 29/20 A2984 RMK A01 T02940195  RH  055%=      5-min Rain = 0
KCO1 262302Z 13015G20KT 30/20 A2984 RMK A01 T02950196  RH  055%=      5-min Rain = 0
KCO1 262303Z 12015G20KT 30/20 A2984 RMK A01 T02950195  RH  055%=      5-min Rain = 0
KCO1 262304Z 12014KT 30/20 A2984 RMK A01 T02960195  RH  055%=      5-min Rain = 0
KCO1 262305Z 12018G24KT 30/20 A2984 RMK A01 T02960195  RH  054%=      5-min Rain = 0
KCO1 262306Z 12019KT 30/19 A2984 RMK A01 T02960193  RH  054%=      5-min Rain = 0
KCO1 262307Z 12021KT 30/19 A2984 RMK A01 T02950192  RH  054%=      5-min Rain = 0
KCO1 262308Z 13020KT 29/19 A2984 RMK A01 T02940192  RH  054%=      5-min Rain = 0
KCO1 262309Z 13019KT 29/19 A2984 RMK A01 T02940192  RH  054%=      5-min Rain = 0
KCO1 262310Z 13021G26KT 29/19 A2984 RMK A01 T02940190  RH  054%=      5-min Rain = 0
KCO1 262311Z 13021KT 29/19 A2984 RMK A01 T02940190  RH  054%=      5-min Rain = 0
KCO1 262312Z 12016G21KT 29/19 A2984 RMK A01 T02940191  RH  054%=      5-min Rain = 0
KCO1 262313Z 13021G27KT 30/19 A2984 RMK A01 T02950192  RH  054%=      5-min Rain = 0
KCO1 262314Z 13017G22KT 30/19 A2984 RMK A01 T02960191  RH  053%=      5-min Rain = 0
KCO1 262315Z 13017KT 30/19 A2983 RMK A01 T02960193  RH  054%=      5-min Rain = 0
KCO1 262316Z 13020KT 30/19 A2983 RMK A01 T02960192  RH  054%=      5-min Rain = 0
KCO1 262317Z 13021G27KT 30/19 A2984 RMK A01 T02950191  RH  054%=      5-min Rain = 0
KCO1 262318Z 13021KT 29/19 A2983 RMK A01 T02940191  RH  054%=      5-min Rain = 0
KCO1 262319Z 13019KT 29/19 A2983 RMK A01 T02930191  RH  054%=      5-min Rain = 0
KCO1 262320Z 13016KT 29/19 A2984 RMK A01 T02930191  RH  054%=      5-min Rain = 0
KCO1 262321Z 13018KT 29/19 A2984 RMK A01 T02930191  RH  054%=      5-min Rain = 0
KCO1 262322Z 13020KT 29/19 A2984 RMK A01 T02930192  RH  054%=      5-min Rain = 0
KCO1 262323Z 13015KT 29/19 A2984 RMK A01 T02930192  RH  055%=      5-min Rain = 0
KCO1 262324Z 13018KT 29/19 A2984 RMK A01 T02940192  RH  054%=      5-min Rain = 0
KCO1 262325Z 13017G23KT 29/19 A2984 RMK A01 T02940192  RH  054%=      5-min Rain = 0
KCO1 262326Z 13017KT 29/19 A2984 RMK A01 T02940192  RH  054%=      5-min Rain = 0
KCO1 262327Z 13021KT 29/19 A2984 RMK A01 T02940192  RH  054%=      5-min Rain = 0
KCO1 262328Z 13020KT 29/19 A2983 RMK A01 T02930191  RH  054%=      5-min Rain = 0
KCO1 262329Z 13018G23KT 29/19 A2984 RMK A01 T02930191  RH  054%=      5-min Rain = 0
KCO1 262330Z 13019KT 29/19 A2984 RMK A01 T02930191  RH  054%=      5-min Rain = 0
KCO1 262331Z 13019KT 29/19 A2983 RMK A01 T02930191  RH  054%=      5-min Rain = 0
KCO1 262332Z 13019G26KT 29/19 A2984 RMK A01 T02930190  RH  054%=      5-min Rain = 0
KCO1 262333Z 13017KT 29/19 A2983 RMK A01 T02940190  RH  054%=      5-min Rain = 0
KCO1 262334Z 13016KT 29/19 A2983 RMK A01 T02940189  RH  053%=      5-min Rain = 0
KCO1 262335Z 13017G22KT 30/19 A2983 RMK A01 T02960190  RH  053%=      5-min Rain = 0
KCO1 262336Z 13020KT 30/19 A2983 RMK A01 T02960188  RH  052%=      5-min Rain = 0
KCO1 262337Z 13021KT 30/19 A2984 RMK A01 T02960188  RH  053%=      5-min Rain = 0
KCO1 262338Z 13021KT 30/19 A2984 RMK A01 T02950188  RH  052%=      5-min Rain = 0
KCO1 262339Z 13021KT 30/19 A2984 RMK A01 T02950187  RH  052%=      5-min Rain = 0
KCO1 262340Z 13018KT 29/19 A2984 RMK A01 T02940187  RH  053%=      5-min Rain = 0
KCO1 262341Z 13016KT 29/19 A2984 RMK A01 T02940189  RH  053%=      5-min Rain = 0
KCO1 262342Z 13014KT 29/19 A2984 RMK A01 T02940190  RH  053%=      5-min Rain = 0
KCO1 262343Z 13017KT 30/19 A2984 RMK A01 T02950190  RH  053%=      5-min Rain = 0
KCO1 262344Z 13017G22KT 30/19 A2984 RMK A01 T02950190  RH  053%=      5-min Rain = 0
KCO1 262345Z 13014G19KT 29/19 A2984 RMK A01 T02940190  RH  054%=      5-min Rain = 0
KCO1 262346Z 13016KT 29/19 A2984 RMK A01 T02930189  RH  053%=      5-min Rain = 0
KCO1 262347Z 13018G24KT 29/19 A2984 RMK A01 T02940188  RH  053%=      5-min Rain = 0
KCO1 262348Z 13016KT 29/19 A2984 RMK A01 T02940187  RH  053%=      5-min Rain = 0
KCO1 262349Z 13016G21KT 29/19 A2984 RMK A01 T02940189  RH  053%=      5-min Rain = 0
KCO1 262350Z 13018KT 29/19 A2984 RMK A01 T02940188  RH  053%=      5-min Rain = 0
KCO1 262351Z 13017KT 29/19 A2984 RMK A01 T02940187  RH  053%=      5-min Rain = 0
KCO1 262352Z 13017G22KT 29/19 A2984 RMK A01 T02930187  RH  053%=      5-min Rain = 0
KCO1 262353Z 13020KT 29/19 A2984 RMK A01 T02940185  RH  052%=      5-min Rain = 0
KCO1 262354Z 14020KT 29/18 A2984 RMK A01 T02940184  RH  052%=      5-min Rain = 0
KCO1 262355Z 13019KT 29/18 A2984 RMK A01 T02940184  RH  052%=      5-min Rain = 0
KCO1 262356Z 13017G22KT 29/18 A2984 RMK A01 T02930183  RH  052%=      5-min Rain = 0
KCO1 262357Z 13014KT 29/18 A2983 RMK A01 T02930184  RH  052%=      5-min Rain = 0
KCO1 262358Z 13019KT 29/18 A2983 RMK A01 T02920184  RH  052%=      5-min Rain = 0
KCO1 262359Z 13017G22KT 29/18 A2983 RMK A01 T02920183  RH  052%=      5-min Rain = 0
KCO1 270000Z 13017G22KT 29/18 A2983 RMK A01 T02920182  RH  052%=      5-min Rain = 0
KCO1 270001Z 13019G24KT 29/18 A2983 RMK A01 T02920183  RH  052%=      5-min Rain = 0
KCO1 270002Z 13015G20KT 29/18 A2983 RMK A01 T02920183  RH  052%=      5-min Rain = 0
KCO1 270003Z 13012G18KT 29/18 A2983 RMK A01 T02930184  RH  052%=      5-min Rain = 0
KCO1 270004Z 13016KT 29/18 A2983 RMK A01 T02930184  RH  052%=      5-min Rain = 0
KCO1 270005Z 13018KT 29/19 A2983 RMK A01 T02940185  RH  052%=      5-min Rain = 0
KCO1 270006Z 12018KT 29/18 A2983 RMK A01 T02930184  RH  052%=      5-min Rain = 0
KCO1 270007Z 12018KT 29/18 A2983 RMK A01 T02920184  RH  052%=      5-min Rain = 0
KCO1 270008Z 13019G24KT 29/18 A2983 RMK A01 T02920184  RH  052%=      5-min Rain = 0
KCO1 270009Z 12017G22KT 29/19 A2983 RMK A01 T02920185  RH  052%=      5-min Rain = 0
KCO1 270010Z 13017G22KT 29/19 A2983 RMK A01 T02920185  RH  052%=      5-min Rain = 0
KCO1 270011Z 13017KT 29/18 A2983 RMK A01 T02920184  RH  052%=      5-min Rain = 0
KCO1 270012Z 14019KT 29/18 A2982 RMK A01 T02920183  RH  052%=      5-min Rain = 0
KCO1 270013Z 13015G20KT 29/19 A2983 RMK A01 T02920185  RH  052%=      5-min Rain = 0
KCO1 270014Z 13020KT 29/19 A2983 RMK A01 T02920186  RH  053%=      5-min Rain = 0
KCO1 270015Z 13019KT 29/19 A2983 RMK A01 T02910185  RH  053%=      5-min Rain = 0
KCO1 270016Z 13021G27KT 29/18 A2983 RMK A01 T02910183  RH  052%=      5-min Rain = 0
KCO1 270017Z 13019KT 29/18 A2983 RMK A01 T02920181  RH  051%=      5-min Rain = 0
KCO1 270018Z 14018G23KT 29/18 A2983 RMK A01 T02920181  RH  051%=      5-min Rain = 0
KCO1 270019Z 14021KT 29/18 A2982 RMK A01 T02930181  RH  051%=      5-min Rain = 0
KCO1 270020Z 14021G27KT 29/18 A2982 RMK A01 T02930181  RH  051%=      5-min Rain = 0
KCO1 270021Z 14019G25KT 29/18 A2982 RMK A01 T02930181  RH  051%=      5-min Rain = 0
KCO1 270022Z 14023G28KT 29/18 A2982 RMK A01 T02930181  RH  051%=      5-min Rain = 0
KCO1 270023Z 13023KT 29/18 A2982 RMK A01 T02940181  RH  051%=      5-min Rain = 0
KCO1 270024Z 14022KT 29/18 A2982 RMK A01 T02930181  RH  051%=      5-min Rain = 0
KCO1 270025Z 14020KT 29/18 A2982 RMK A01 T02930181  RH  051%=      5-min Rain = 0
KCO1 270026Z 14021G26KT 29/18 A2982 RMK A01 T02930182  RH  051%=      5-min Rain = 0
KCO1 270027Z 13022KT 29/18 A2982 RMK A01 T02930182  RH  051%=      5-min Rain = 0
KCO1 270028Z 13017KT 29/18 A2982 RMK A01 T02930184  RH  052%=      5-min Rain = 0
KCO1 270029Z 13014KT 29/19 A2983 RMK A01 T02920185  RH  052%=      5-min Rain = 0
KCO1 270030Z 14019G26KT 29/18 A2982 RMK A01 T02920184  RH  052%=      5-min Rain = 0
KCO1 270031Z 14024KT 29/18 A2982 RMK A01 T02920184  RH  052%=      5-min Rain = 0
KCO1 270032Z 13022KT 29/18 A2982 RMK A01 T02910184  RH  052%=      5-min Rain = 0
KCO1 270033Z 14018KT 29/18 A2982 RMK A01 T02900184  RH  053%=      5-min Rain = 0
KCO1 270034Z 13017G22KT 29/19 A2982 RMK A01 T02900185  RH  053%=      5-min Rain = 0
KCO1 270035Z 13016KT 29/19 A2982 RMK A01 T02900185  RH  053%=      5-min Rain = 0
KCO1 270036Z 13018KT 29/19 A2982 RMK A01 T02900185  RH  053%=      5-min Rain = 0
KCO1 270037Z 14018G24KT 29/19 A2982 RMK A01 T02900185  RH  053%=      5-min Rain = 0
KCO1 270038Z 13021KT 29/19 A2982 RMK A01 T02900185  RH  053%=      5-min Rain = 0
KCO1 270039Z 13021KT 29/18 A2982 RMK A01 T02890184  RH  053%=      5-min Rain = 0
KCO1 270040Z 13018G25KT 29/19 A2983 RMK A01 T02880185  RH  053%=      5-min Rain = 0
KCO1 270041Z 13021KT 29/19 A2982 RMK A01 T02880185  RH  054%=      5-min Rain = 0
KCO1 270042Z 14019KT 29/18 A2982 RMK A01 T02870184  RH  054%=      5-min Rain = 0
KCO1 270043Z 14017G22KT 29/19 A2983 RMK A01 T02870185  RH  054%=      5-min Rain = 0
KCO1 270044Z 14017G26KT 29/18 A2983 RMK A01 T02870184  RH  054%=      5-min Rain = 0
KCO1 270045Z 15023KT 29/18 A2982 RMK A01 T02880183  RH  053%=      5-min Rain = 0
KCO1 270046Z 15019KT 29/18 A2982 RMK A01 T02880183  RH  053%=      5-min Rain = 0
KCO1 270047Z 14021G26KT 29/18 A2982 RMK A01 T02870183  RH  053%=      5-min Rain = 0
KCO1 270048Z 14020KT 29/18 A2982 RMK A01 T02870182  RH  053%=      5-min Rain = 0
KCO1 270049Z 14019G26KT 29/18 A2982 RMK A01 T02860182  RH  053%=      5-min Rain = 0
KCO1 270050Z 15020G27KT 29/18 A2982 RMK A01 T02860183  RH  054%=      5-min Rain = 0
KCO1 270051Z 16021KT 29/18 A2982 RMK A01 T02860182  RH  053%=      5-min Rain = 0
KCO1 270052Z 14020KT 29/18 A2982 RMK A01 T02860183  RH  054%=      5-min Rain = 0
KCO1 270053Z 14020KT 29/18 A2982 RMK A01 T02850183  RH  054%=      5-min Rain = 0
KCO1 270054Z 15018KT 29/18 A2982 RMK A01 T02850184  RH  054%=      5-min Rain = 0
KCO1 270055Z 15020G25KT 29/18 A2982 RMK A01 T02850184  RH  054%=      5-min Rain = 0
KCO1 270056Z 14017G25KT 28/18 A2982 RMK A01 T02840184  RH  054%=      5-min Rain = 0
KCO1 270057Z 14017G23KT 28/18 A2982 RMK A01 T02840184  RH  055%=      5-min Rain = 0
KCO1 270058Z 14020KT 28/19 A2982 RMK A01 T02840185  RH  055%=      5-min Rain = 0
KCO1 270059Z 15018G26KT 28/18 A2982 RMK A01 T02830184  RH  055%=      5-min Rain = 0
KCO1 270100Z 14020G27KT 28/18 A2982 RMK A01 T02830184  RH  055%=      5-min Rain = 0
KCO1 270101Z 17023G29KT 28/18 A2982 RMK A01 T02830184  RH  055%=      5-min Rain = 0
KCO1 270102Z 14024G29KT 28/18 A2982 RMK A01 T02820183  RH  055%=      5-min Rain = 0
KCO1 270103Z 14021G26KT 28/18 A2982 RMK A01 T02820183  RH  055%=      5-min Rain = 0
KCO1 270104Z 13021G26KT 28/18 A2982 RMK A01 T02810183  RH  055%=      5-min Rain = 0
KCO1 270105Z 14023G29KT 28/18 A2982 RMK A01 T02810183  RH  055%=      5-min Rain = 0
KCO1 270106Z 14022KT 28/18 A2982 RMK A01 T02810183  RH  055%=      5-min Rain = 0
KCO1 270107Z 14020KT 28/18 A2982 RMK A01 T02810183  RH  055%=      5-min Rain = 0
KCO1 270108Z 14017KT 28/18 A2982 RMK A01 T02800183  RH  055%=      5-min Rain = 0
KCO1 270109Z 14021G26KT 28/18 A2982 RMK A01 T02800183  RH  055%=      5-min Rain = 0
KCO1 270110Z 15020KT 28/18 A2982 RMK A01 T02800182  RH  056%=      5-min Rain = 0
KCO1 270111Z 14021KT 28/18 A2983 RMK A01 T02790182  RH  056%=      5-min Rain = 0
KCO1 270112Z 14020KT 28/18 A2982 RMK A01 T02790182  RH  056%=      5-min Rain = 0
KCO1 270113Z 14025G32KT 28/18 A2982 RMK A01 T02790182  RH  056%=      5-min Rain = 0
KCO1 270114Z 14022G28KT 28/18 A2982 RMK A01 T02790182  RH  056%=      5-min Rain = 0
KCO1 270115Z 15020G25KT 28/18 A2982 RMK A01 T02790182  RH  056%=      5-min Rain = 0
KCO1 270116Z 15019G24KT 28/18 A2982 RMK A01 T02780181  RH  056%=      5-min Rain = 0
KCO1 270117Z 14016KT 28/18 A2982 RMK A01 T02780182  RH  056%=      5-min Rain = 0
KCO1 270118Z 14019KT 28/18 A2982 RMK A01 T02780183  RH  056%=      5-min Rain = 0
KCO1 270119Z 14016KT 28/18 A2982 RMK A01 T02770183  RH  057%=      5-min Rain = 0
KCO1 270120Z 14020G25KT 28/18 A2982 RMK A01 T02760183  RH  057%=      5-min Rain = 0
KCO1 270121Z 14019G24KT 28/18 A2982 RMK A01 T02760183  RH  057%=      5-min Rain = 0
KCO1 270122Z 14020G26KT 28/18 A2982 RMK A01 T02760183  RH  057%=      5-min Rain = 0
KCO1 270123Z 14021KT 28/18 A2982 RMK A01 T02750183  RH  057%=      5-min Rain = 0
KCO1 270124Z 15023KT 28/18 A2982 RMK A01 T02750183  RH  057%=      5-min Rain = 0
KCO1 270125Z 14018G23KT 28/18 A2982 RMK A01 T02750182  RH  057%=      5-min Rain = 0
KCO1 270126Z 14021G26KT 28/18 A2982 RMK A01 T02750182  RH  057%=      5-min Rain = 0
KCO1 270127Z 14022KT 28/18 A2982 RMK A01 T02750182  RH  057%=      5-min Rain = 0
KCO1 270128Z 15021G28KT 28/18 A2982 RMK A01 T02750182  RH  057%=      5-min Rain = 0
KCO1 270129Z 14019KT 28/18 A2982 RMK A01 T02750182  RH  057%=      5-min Rain = 0
KCO1 270130Z 14018G23KT 27/18 A2982 RMK A01 T02740181  RH  057%=      5-min Rain = 0
KCO1 270131Z 14016KT 27/18 A2982 RMK A01 T02740182  RH  057%=      5-min Rain = 0
KCO1 270132Z 14020G25KT 27/18 A2982 RMK A01 T02730182  RH  057%=      5-min Rain = 0
KCO1 270133Z 14019G24KT 27/18 A2982 RMK A01 T02730182  RH  057%=      5-min Rain = 0
KCO1 270134Z 14019G25KT 27/18 A2982 RMK A01 T02730182  RH  057%=      5-min Rain = 0
KCO1 270135Z 14022G27KT 27/18 A2982 RMK A01 T02730182  RH  057%=      5-min Rain = 0
KCO1 270136Z 14020G25KT 27/18 A2982 RMK A01 T02730182  RH  057%=      5-min Rain = 0
KCO1 270137Z 14018G24KT 27/18 A2982 RMK A01 T02730182  RH  058%=      5-min Rain = 0
KCO1 270138Z 14020G26KT 27/18 A2982 RMK A01 T02720181  RH  058%=      5-min Rain = 0
KCO1 270139Z 14020G26KT 27/18 A2982 RMK A01 T02720181  RH  058%=      5-min Rain = 0
KCO1 270140Z 14019G25KT 27/18 A2982 RMK A01 T02720181  RH  058%=      5-min Rain = 0
KCO1 270141Z 14019G24KT 27/18 A2982 RMK A01 T02720181  RH  057%=      5-min Rain = 0
KCO1 270142Z 14020G26KT 27/18 A2982 RMK A01 T02720181  RH  058%=      5-min Rain = 0
KCO1 270143Z 14018G25KT 27/18 A2982 RMK A01 T02720181  RH  058%=      5-min Rain = 0
KCO1 270144Z 14020G26KT 27/18 A2982 RMK A01 T02710180  RH  057%=      5-min Rain = 0
KCO1 270145Z 14021G27KT 27/18 A2982 RMK A01 T02710180  RH  057%=      5-min Rain = 0
KCO1 270146Z 15022G28KT 27/18 A2982 RMK A01 T02710180  RH  057%=      5-min Rain = 0
KCO1 270147Z 14019G24KT 27/18 A2982 RMK A01 T02710180  RH  057%=      5-min Rain = 0
KCO1 270148Z 14018KT 27/18 A2982 RMK A01 T02710180  RH  057%=      5-min Rain = 0
KCO1 270149Z 14015KT 27/18 A2982 RMK A01 T02700180  RH  058%=      5-min Rain = 0
KCO1 270150Z 14018KT 27/18 A2982 RMK A01 T02690180  RH  058%=      5-min Rain = 0
KCO1 270151Z 14022G31KT 27/18 A2982 RMK A01 T02690180  RH  058%=      5-min Rain = 0
KCO1 270152Z 14023G30KT 27/18 A2982 RMK A01 T02690179  RH  058%=      5-min Rain = 0
KCO1 270153Z 15022KT 27/18 A2982 RMK A01 T02700180  RH  058%=      5-min Rain = 0
KCO1 270154Z 15022G29KT 27/18 A2982 RMK A01 T02700179  RH  058%=      5-min Rain = 0
KCO1 270155Z 15017KT 27/18 A2982 RMK A01 T02700180  RH  058%=      5-min Rain = 0
KCO1 270156Z 15021G29KT 27/18 A2982 RMK A01 T02700180  RH  058%=      5-min Rain = 0
KCO1 270157Z 15024KT 27/18 A2982 RMK A01 T02690179  RH  058%=      5-min Rain = 0
KCO1 270158Z 14021G26KT 27/18 A2982 RMK A01 T02690179  RH  058%=      5-min Rain = 0
KCO1 270159Z 14018KT 27/18 A2982 RMK A01 T02700179  RH  057%=      5-min Rain = 0
KCO1 270200Z 15019KT 27/18 A2982 RMK A01 T02690179  RH  058%=      5-min Rain = 0
KCO1 270201Z 16022G30KT 27/18 A2982 RMK A01 T02690179  RH  058%=      5-min Rain = 0
KCO1 270202Z 15022G27KT 27/18 A2982 RMK A01 T02690178  RH  058%=      5-min Rain = 0
KCO1 270203Z 14019G29KT 27/18 A2982 RMK A01 T02690178  RH  057%=      5-min Rain = 0
KCO1 270204Z 15023G29KT 27/18 A2982 RMK A01 T02690178  RH  057%=      5-min Rain = 0
KCO1 270205Z 14017KT 27/18 A2982 RMK A01 T02690177  RH  057%=      5-min Rain = 0
KCO1 270206Z 14022G28KT 27/18 A2982 RMK A01 T02680177  RH  057%=      5-min Rain = 0
KCO1 270207Z 15019G27KT 27/18 A2982 RMK A01 T02680177  RH  057%=      5-min Rain = 0
KCO1 270208Z 14020G26KT 27/18 A2982 RMK A01 T02680177  RH  057%=      5-min Rain = 0
KCO1 270209Z 15020G28KT 27/18 A2982 RMK A01 T02680176  RH  057%=      5-min Rain = 0
KCO1 270210Z 14023G28KT 27/18 A2982 RMK A01 T02680176  RH  057%=      5-min Rain = 0
KCO1 270211Z 15019G24KT 27/18 A2982 RMK A01 T02680176  RH  057%=      5-min Rain = 0
KCO1 270212Z 14018G24KT 27/18 A2982 RMK A01 T02670175  RH  057%=      5-min Rain = 0
KCO1 270213Z 14016G21KT 27/18 A2982 RMK A01 T02670175  RH  057%=      5-min Rain = 0
KCO1 270214Z 14016G21KT 27/17 A2982 RMK A01 T02660174  RH  057%=      5-min Rain = 0
KCO1 270215Z 15021G26KT 27/17 A2982 RMK A01 T02660174  RH  057%=      5-min Rain = 0
KCO1 270216Z 15020KT 27/17 A2982 RMK A01 T02660174  RH  057%=      5-min Rain = 0
KCO1 270217Z 15022G27KT 27/17 A2982 RMK A01 T02660173  RH  057%=      5-min Rain = 0
KCO1 270218Z 14022KT 27/17 A2982 RMK A01 T02660173  RH  057%=      5-min Rain = 0
KCO1 270219Z 14020G25KT 27/17 A2982 RMK A01 T02660173  RH  057%=      5-min Rain = 0
KCO1 270220Z 15017KT 27/17 A2982 RMK A01 T02660173  RH  057%=      5-min Rain = 0
KCO1 270221Z 15020KT 27/17 A2982 RMK A01 T02650173  RH  057%=      5-min Rain = 0
KCO1 270222Z 15022KT 27/17 A2982 RMK A01 T02650173  RH  057%=      5-min Rain = 0
KCO1 270223Z 15022G27KT 27/17 A2982 RMK A01 T02650173  RH  057%=      5-min Rain = 0
KCO1 270224Z 15019KT 27/17 A2982 RMK A01 T02650173  RH  057%=      5-min Rain = 0
KCO1 270225Z 15018G26KT 27/17 A2982 RMK A01 T02650173  RH  057%=      5-min Rain = 0
KCO1 270226Z 15019G25KT 27/17 A2982 RMK A01 T02650174  RH  057%=      5-min Rain = 0
KCO1 270227Z 15017KT 27/17 A2982 RMK A01 T02650173  RH  057%=      5-min Rain = 0
KCO1 270228Z 14017KT 26/17 A2982 RMK A01 T02640173  RH  057%=      5-min Rain = 0
KCO1 270229Z 15020G25KT 26/17 A2982 RMK A01 T02630173  RH  057%=      5-min Rain = 0
KCO1 270230Z 15022KT 26/17 A2982 RMK A01 T02630173  RH  057%=      5-min Rain = 0
KCO1 270231Z 14021G27KT 26/17 A2982 RMK A01 T02640173  RH  057%=      5-min Rain = 0
KCO1 270232Z 14018G24KT 26/17 A2982 RMK A01 T02640173  RH  057%=      5-min Rain = 0
KCO1 270233Z 15017KT 26/17 A2982 RMK A01 T02640173  RH  057%=      5-min Rain = 0
KCO1 270234Z 14018G23KT 26/17 A2982 RMK A01 T02630173  RH  058%=      5-min Rain = 0
KCO1 270235Z 14016KT 26/17 A2982 RMK A01 T02630173  RH  058%=      5-min Rain = 0
KCO1 270236Z 14020G25KT 26/17 A2982 RMK A01 T02620173  RH  058%=      5-min Rain = 0
KCO1 270237Z 15020KT 26/17 A2982 RMK A01 T02620173  RH  058%=      5-min Rain = 0
KCO1 270238Z 14016KT 26/17 A2982 RMK A01 T02620173  RH  058%=      5-min Rain = 0
KCO1 270239Z 14018KT 26/17 A2982 RMK A01 T02610173  RH  058%=      5-min Rain = 0
KCO1 270240Z 14018G26KT 26/17 A2982 RMK A01 T02610173  RH  058%=      5-min Rain = 0
KCO1 270241Z 14017G22KT 26/17 A2982 RMK A01 T02610173  RH  058%=      5-min Rain = 0
KCO1 270242Z 14016KT 26/17 A2982 RMK A01 T02610173  RH  058%=      5-min Rain = 0
KCO1 270243Z 14016KT 26/17 A2982 RMK A01 T02600173  RH  059%=      5-min Rain = 0
KCO1 270244Z 14015KT 26/17 A2982 RMK A01 T02600173  RH  059%=      5-min Rain = 0
KCO1 270245Z 14017G22KT 26/17 A2982 RMK A01 T02590173  RH  059%=      5-min Rain = 0
KCO1 270246Z 14017KT 26/17 A2982 RMK A01 T02590173  RH  059%=      5-min Rain = 0
KCO1 270247Z 15019KT 26/17 A2982 RMK A01 T02590173  RH  059%=      5-min Rain = 0
KCO1 270248Z 15018KT 26/17 A2982 RMK A01 T02590173  RH  059%=      5-min Rain = 0
KCO1 270249Z 15018KT 26/17 A2982 RMK A01 T02590173  RH  059%=      5-min Rain = 0
KCO1 270250Z 14018G23KT 26/17 A2982 RMK A01 T02590173  RH  059%=      5-min Rain = 0
KCO1 270251Z 14020KT 26/17 A2982 RMK A01 T02590173  RH  059%=      5-min Rain = 0
KCO1 270252Z 15018G23KT 26/17 A2982 RMK A01 T02590173  RH  059%=      5-min Rain = 0
KCO1 270253Z 15015G21KT 26/17 A2982 RMK A01 T02600174  RH  059%=      5-min Rain = 0
KCO1 270254Z 15015KT 26/17 A2982 RMK A01 T02590173  RH  059%=      5-min Rain = 0
KCO1 270255Z 15018KT 26/17 A2982 RMK A01 T02580173  RH  059%=      5-min Rain = 0
KCO1 270256Z 15017KT 26/17 A2982 RMK A01 T02580173  RH  059%=      5-min Rain = 0
KCO1 270257Z 15019G24KT 26/17 A2982 RMK A01 T02580173  RH  059%=      5-min Rain = 0
KCO1 270258Z 15016KT 26/17 A2982 RMK A01 T02580173  RH  059%=      5-min Rain = 0
KCO1 270259Z 15017KT 26/17 A2982 RMK A01 T02580173  RH  059%=      5-min Rain = 0
KCO1 270300Z 15015KT 26/17 A2982 RMK A01 T02580173  RH  059%=      5-min Rain = 0
KCO1 270301Z 15015G20KT 26/17 A2982 RMK A01 T02570173  RH  060%=      5-min Rain = 0
KCO1 270302Z 15016KT 26/17 A2982 RMK A01 T02570173  RH  060%=      5-min Rain = 0
KCO1 270303Z 15016KT 26/17 A2982 RMK A01 T02570173  RH  060%=      5-min Rain = 0
KCO1 270304Z 15017KT 26/17 A2982 RMK A01 T02570173  RH  060%=      5-min Rain = 0
KCO1 270305Z 15018G23KT 26/17 A2982 RMK A01 T02570173  RH  060%=      5-min Rain = 0
KCO1 270306Z 15016KT 26/17 A2982 RMK A01 T02570173  RH  060%=      5-min Rain = 0
KCO1 270307Z 15016KT 26/17 A2982 RMK A01 T02570173  RH  060%=      5-min Rain = 0
KCO1 270308Z 15019KT 26/17 A2982 RMK A01 T02570173  RH  060%=      5-min Rain = 0
KCO1 270309Z 15015KT 26/17 A2982 RMK A01 T02570173  RH  060%=      5-min Rain = 0
KCO1 270310Z 14016KT 26/17 A2982 RMK A01 T02570173  RH  060%=      5-min Rain = 0
KCO1 270311Z 15017KT 26/17 A2982 RMK A01 T02570173  RH  060%=      5-min Rain = 0
KCO1 270312Z 15016KT 26/17 A2982 RMK A01 T02570173  RH  060%=      5-min Rain = 0
KCO1 270313Z 15015G20KT 26/17 A2982 RMK A01 T02570173  RH  060%=      5-min Rain = 0
KCO1 270314Z 15014KT 26/17 A2983 RMK A01 T02570173  RH  060%=      5-min Rain = 0
KCO1 270315Z 15016KT 26/17 A2982 RMK A01 T02560172  RH  060%=      5-min Rain = 0
KCO1 270316Z 15015KT 26/17 A2983 RMK A01 T02560172  RH  060%=      5-min Rain = 0
KCO1 270317Z 14017KT 26/17 A2982 RMK A01 T02560172  RH  060%=      5-min Rain = 0
KCO1 270318Z 14017G22KT 26/17 A2982 RMK A01 T02560172  RH  060%=      5-min Rain = 0
KCO1 270319Z 15017G22KT 26/17 A2982 RMK A01 T02560172  RH  060%=      5-min Rain = 0
KCO1 270320Z 14017G23KT 26/17 A2982 RMK A01 T02560172  RH  060%=      5-min Rain = 0
KCO1 270321Z 15019G25KT 26/17 A2982 RMK A01 T02570172  RH  059%=      5-min Rain = 0
KCO1 270322Z 15016G23KT 26/17 A2983 RMK A01 T02570172  RH  059%=      5-min Rain = 0
KCO1 270323Z 15017G23KT 26/17 A2983 RMK A01 T02570172  RH  059%=      5-min Rain = 0
KCO1 270324Z 15019KT 26/17 A2982 RMK A01 T02570172  RH  059%=      5-min Rain = 0
KCO1 270325Z 15020KT 26/17 A2982 RMK A01 T02570172  RH  059%=      5-min Rain = 0
KCO1 270326Z 15018KT 26/17 A2983 RMK A01 T02570172  RH  059%=      5-min Rain = 0
KCO1 270327Z 15015G21KT 26/17 A2983 RMK A01 T02570172  RH  059%=      5-min Rain = 0
KCO1 270328Z 15017KT 26/17 A2983 RMK A01 T02570172  RH  060%=      5-min Rain = 0
KCO1 270329Z 15019G25KT 26/17 A2983 RMK A01 T02570172  RH  060%=      5-min Rain = 0
KCO1 270330Z 14017KT 26/17 A2983 RMK A01 T02570172  RH  059%=      5-min Rain = 0
KCO1 270331Z 14017KT 26/17 A2983 RMK A01 T02560171  RH  059%=      5-min Rain = 0
KCO1 270332Z 15016KT 26/17 A2983 RMK A01 T02570172  RH  059%=      5-min Rain = 0
KCO1 270333Z 14017G23KT 26/17 A2983 RMK A01 T02560171  RH  059%=      5-min Rain = 0
KCO1 270334Z 15019G26KT 26/17 A2983 RMK A01 T02560171  RH  059%=      5-min Rain = 0
KCO1 270335Z 15018KT 26/17 A2983 RMK A01 T02560171  RH  059%=      5-min Rain = 0
KCO1 270336Z 15019G24KT 26/17 A2983 RMK A01 T02560170  RH  059%=      5-min Rain = 0
KCO1 270337Z 15018G23KT 26/17 A2983 RMK A01 T02560170  RH  059%=      5-min Rain = 0
KCO1 270338Z 15017KT 26/17 A2983 RMK A01 T02560170  RH  059%=      5-min Rain = 0
KCO1 270339Z 15019G24KT 26/17 A2983 RMK A01 T02560170  RH  059%=      5-min Rain = 0
KCO1 270340Z 15015KT 26/17 A2983 RMK A01 T02560169  RH  059%=      5-min Rain = 0
KCO1 270341Z 15018KT 26/17 A2983 RMK A01 T02550169  RH  059%=      5-min Rain = 0
KCO1 270342Z 15019KT 26/17 A2983 RMK A01 T02550169  RH  059%=      5-min Rain = 0
KCO1 270343Z 15020KT 26/17 A2983 RMK A01 T02550168  RH  059%=      5-min Rain = 0
KCO1 270344Z 15020KT 26/17 A2983 RMK A01 T02550168  RH  059%=      5-min Rain = 0
KCO1 270345Z 14019G25KT 26/17 A2983 RMK A01 T02550168  RH  059%=      5-min Rain = 0
KCO1 270346Z 15019G25KT 26/17 A2983 RMK A01 T02550168  RH  058%=      5-min Rain = 0
KCO1 270347Z 15021G26KT 26/17 A2983 RMK A01 T02560168  RH  058%=      5-min Rain = 0
KCO1 270348Z 15018G24KT 26/17 A2983 RMK A01 T02560168  RH  058%=      5-min Rain = 0
KCO1 270349Z 15020KT 26/17 A2983 RMK A01 T02550168  RH  058%=      5-min Rain = 0
KCO1 270350Z 15017KT 26/17 A2983 RMK A01 T02550168  RH  058%=      5-min Rain = 0
KCO1 270351Z 15019KT 26/17 A2983 RMK A01 T02550168  RH  058%=      5-min Rain = 0
KCO1 270352Z 15021G26KT 26/17 A2983 RMK A01 T02550167  RH  058%=      5-min Rain = 0
KCO1 270353Z 15020G27KT 26/17 A2983 RMK A01 T02550167  RH  058%=      5-min Rain = 0
KCO1 270354Z 15020G26KT 26/17 A2983 RMK A01 T02550167  RH  058%=      5-min Rain = 0
KCO1 270355Z 15019G24KT 26/17 A2983 RMK A01 T02550166  RH  058%=      5-min Rain = 0
KCO1 270356Z 15018KT 25/17 A2983 RMK A01 T02540167  RH  058%=      5-min Rain = 0
KCO1 270357Z 15015G21KT 25/17 A2983 RMK A01 T02540167  RH  059%=      5-min Rain = 0
KCO1 270358Z 15019G26KT 25/17 A2983 RMK A01 T02530167  RH  059%=      5-min Rain = 0
KCO1 270359Z 15021G26KT 25/17 A2983 RMK A01 T02530167  RH  059%=      5-min Rain = 0
KCO1 270400Z 15019G25KT 25/17 A2983 RMK A01 T02530166  RH  059%=      5-min Rain = 0
KCO1 270401Z 14017G22KT 25/17 A2983 RMK A01 T02530166  RH  059%=      5-min Rain = 0
KCO1 270402Z 15018G23KT 25/17 A2983 RMK A01 T02530166  RH  059%=      5-min Rain = 0
KCO1 270403Z 15021KT 25/17 A2983 RMK A01 T02530166  RH  059%=      5-min Rain = 0
KCO1 270404Z 15020G26KT 25/17 A2983 RMK A01 T02530166  RH  059%=      5-min Rain = 0
KCO1 270405Z 15020KT 25/17 A2983 RMK A01 T02530166  RH  059%=      5-min Rain = 0
KCO1 270406Z 15019KT 25/17 A2983 RMK A01 T02520166  RH  059%=      5-min Rain = 0
KCO1 270407Z 15016KT 25/17 A2983 RMK A01 T02520166  RH  059%=      5-min Rain = 0
KCO1 270408Z 15017G23KT 25/17 A2983 RMK A01 T02510166  RH  059%=      5-min Rain = 0
KCO1 270409Z 15020G27KT 25/17 A2983 RMK A01 T02510166  RH  059%=      5-min Rain = 0
KCO1 270410Z 15015KT 25/17 A2983 RMK A01 T02510166  RH  059%=      5-min Rain = 0
KCO1 270411Z 15020G27KT 25/17 A2983 RMK A01 T02510166  RH  059%=      5-min Rain = 0
KCO1 270412Z 15020KT 25/17 A2983 RMK A01 T02510166  RH  059%=      5-min Rain = 0
KCO1 270413Z 14015G23KT 25/17 A2983 RMK A01 T02510166  RH  059%=      5-min Rain = 0
KCO1 270414Z 15021G28KT 25/17 A2983 RMK A01 T02500166  RH  059%=      5-min Rain = 0
KCO1 270415Z 15020G26KT 25/17 A2983 RMK A01 T02510166  RH  059%=      5-min Rain = 0
KCO1 270416Z 15015KT 25/17 A2983 RMK A01 T02500165  RH  059%=      5-min Rain = 0
KCO1 270417Z 15017G26KT 25/17 A2983 RMK A01 T02500166  RH  059%=      5-min Rain = 0
KCO1 270418Z 15018G23KT 25/17 A2983 RMK A01 T02490165  RH  059%=      5-min Rain = 0
KCO1 270419Z 15014KT 25/17 A2983 RMK A01 T02500165  RH  059%=      5-min Rain = 0
KCO1 270420Z 15017G23KT 25/17 A2983 RMK A01 T02500165  RH  059%=      5-min Rain = 0
KCO1 270421Z 15017KT 25/17 A2983 RMK A01 T02500165  RH  059%=      5-min Rain = 0
KCO1 270422Z 15020G26KT 25/17 A2983 RMK A01 T02500165  RH  059%=      5-min Rain = 0
KCO1 270423Z 15017KT 25/17 A2983 RMK A01 T02500165  RH  059%=      5-min Rain = 0
KCO1 270424Z 15018G26KT 25/17 A2983 RMK A01 T02500165  RH  059%=      5-min Rain = 0
KCO1 270425Z 15018G23KT 25/17 A2983 RMK A01 T02500165  RH  059%=      5-min Rain = 0
KCO1 270426Z 15017G22KT 25/17 A2983 RMK A01 T02500165  RH  059%=      5-min Rain = 0
KCO1 270427Z 15021KT 25/16 A2983 RMK A01 T02500164  RH  059%=      5-min Rain = 0
KCO1 270428Z 15016KT 25/16 A2983 RMK A01 T02500164  RH  059%=      5-min Rain = 0
KCO1 270429Z 15019G24KT 25/16 A2983 RMK A01 T02500164  RH  059%=      5-min Rain = 0
KCO1 270430Z 15019KT 25/16 A2983 RMK A01 T02500164  RH  059%=      5-min Rain = 0
KCO1 270431Z 16018G26KT 25/16 A2983 RMK A01 T02500164  RH  059%=      5-min Rain = 0
KCO1 270432Z 15018G24KT 25/16 A2983 RMK A01 T02500164  RH  059%=      5-min Rain = 0
KCO1 270433Z 15017KT 25/16 A2983 RMK A01 T02510164  RH  059%=      5-min Rain = 0
KCO1 270434Z 15017G22KT 25/16 A2983 RMK A01 T02510164  RH  059%=      5-min Rain = 0
KCO1 270435Z 15019KT 25/16 A2983 RMK A01 T02500164  RH  059%=      5-min Rain = 0
KCO1 270436Z 15017KT 25/16 A2983 RMK A01 T02500164  RH  059%=      5-min Rain = 0
KCO1 270437Z 15017KT 25/16 A2983 RMK A01 T02500163  RH  059%=      5-min Rain = 0
KCO1 270438Z 15017G23KT 25/16 A2983 RMK A01 T02500164  RH  059%=      5-min Rain = 0
KCO1 270439Z 15019KT 25/16 A2983 RMK A01 T02500163  RH  059%=      5-min Rain = 0
KCO1 270440Z 15017KT 25/16 A2983 RMK A01 T02500163  RH  058%=      5-min Rain = 0
KCO1 270441Z 15016G21KT 25/16 A2983 RMK A01 T02500163  RH  058%=      5-min Rain = 0
KCO1 270442Z 15016KT 25/16 A2983 RMK A01 T02500163  RH  058%=      5-min Rain = 0
KCO1 270443Z 15018G23KT 25/16 A2983 RMK A01 T02500163  RH  059%=      5-min Rain = 0
KCO1 270444Z 15018KT 25/16 A2983 RMK A01 T02500163  RH  059%=      5-min Rain = 0
KCO1 270445Z 15015KT 25/16 A2983 RMK A01 T02500163  RH  058%=      5-min Rain = 0
KCO1 270446Z 15017KT 25/16 A2983 RMK A01 T02500163  RH  058%=      5-min Rain = 0
KCO1 270447Z 15019KT 25/16 A2983 RMK A01 T02500162  RH  058%=      5-min Rain = 0
KCO1 270448Z 15020KT 25/16 A2983 RMK A01 T02500162  RH  058%=      5-min Rain = 0
KCO1 270449Z 15019G25KT 25/16 A2983 RMK A01 T02510162  RH  058%=      5-min Rain = 0
KCO1 270450Z 15018G24KT 25/16 A2983 RMK A01 T02510162  RH  058%=      5-min Rain = 0
KCO1 270451Z 15016KT 25/16 A2983 RMK A01 T02500162  RH  058%=      5-min Rain = 0
KCO1 270452Z 15018KT 25/16 A2982 RMK A01 T02510162  RH  058%=      5-min Rain = 0
KCO1 270453Z 15018G23KT 25/16 A2983 RMK A01 T02500162  RH  058%=      5-min Rain = 0
KCO1 270454Z 15016G22KT 25/16 A2983 RMK A01 T02510162  RH  058%=      5-min Rain = 0
KCO1 270455Z 15017KT 25/16 A2983 RMK A01 T02510161  RH  058%=      5-min Rain = 0
KCO1 270456Z 15017KT 25/16 A2983 RMK A01 T02500161  RH  058%=      5-min Rain = 0
KCO1 270457Z 15019G25KT 25/16 A2983 RMK A01 T02500161  RH  058%=      5-min Rain = 0
KCO1 270458Z 15018KT 25/16 A2983 RMK A01 T02510161  RH  057%=      5-min Rain = 0
KCO1 270459Z 15015KT 25/16 A2983 RMK A01 T02510161  RH  057%=      5-min Rain = 0

Page generated in 0.1489 seconds.